<?xml version='1.0' encoding='UTF-8'?><gpx version="1.1" creator="JPX - https://github.com/jenetics/jpx" xmlns="http://www.topografix.com/GPX/1/1"><trk><trkseg><trkpt lat="45.7595247" lon="8.9681357"><ele>385.00000000000006</ele><time>2026-04-23T13:31:24.377Z</time></trkpt><trkpt lat="45.7595833" lon="8.9680533"><ele>385.0</ele><time>2026-04-23T13:31:27.281Z</time></trkpt><trkpt lat="45.7596433" lon="8.967985"><ele>385.0</ele><time>2026-04-23T13:31:30.282Z</time></trkpt><trkpt lat="45.75971" lon="8.9679567"><ele>385.0</ele><time>2026-04-23T13:31:36.281Z</time></trkpt><trkpt lat="45.7597483" lon="8.9680567"><ele>385.00000000000006</ele><time>2026-04-23T13:37:22.282Z</time></trkpt><trkpt lat="45.75977" lon="8.9681717"><ele>385.0</ele><time>2026-04-23T13:37:24.281Z</time></trkpt><trkpt lat="45.7597983" lon="8.9683183"><ele>384.50000000000006</ele><time>2026-04-23T13:37:26.283Z</time></trkpt><trkpt lat="45.75983" lon="8.9684883"><ele>384.0</ele><time>2026-04-23T13:37:28.284Z</time></trkpt><trkpt lat="45.7598483" lon="8.9685767"><ele>383.5</ele><time>2026-04-23T13:37:29.281Z</time></trkpt><trkpt lat="45.7598683" lon="8.9686667"><ele>383.0</ele><time>2026-04-23T13:37:30.28Z</time></trkpt><trkpt lat="45.75989" lon="8.96876"><ele>382.5</ele><time>2026-04-23T13:37:31.283Z</time></trkpt><trkpt lat="45.7599133" lon="8.9688517"><ele>382.0</ele><time>2026-04-23T13:37:32.282Z</time></trkpt><trkpt lat="45.759935" lon="8.9689433"><ele>382.0</ele><time>2026-04-23T13:37:33.282Z</time></trkpt><trkpt lat="45.7599567" lon="8.969035"><ele>382.0</ele><time>2026-04-23T13:37:34.283Z</time></trkpt><trkpt lat="45.7599767" lon="8.9691283"><ele>382.0</ele><time>2026-04-23T13:37:35.282Z</time></trkpt><trkpt lat="45.7599983" lon="8.9692133"><ele>382.0</ele><time>2026-04-23T13:37:36.281Z</time></trkpt><trkpt lat="45.76001" lon="8.9693517"><ele>382.0</ele><time>2026-04-23T13:37:38.282Z</time></trkpt><trkpt lat="45.7599717" lon="8.9694583"><ele>382.0</ele><time>2026-04-23T13:37:40.281Z</time></trkpt><trkpt lat="45.7598833" lon="8.9695067"><ele>381.5</ele><time>2026-04-23T13:37:42.282Z</time></trkpt><trkpt lat="45.759795" lon="8.969545"><ele>381.0</ele><time>2026-04-23T13:37:44.282Z</time></trkpt><trkpt lat="45.7596167" lon="8.969565"><ele>380.5</ele><time>2026-04-23T13:37:47.282Z</time></trkpt><trkpt lat="45.759495" lon="8.96955"><ele>380.0</ele><time>2026-04-23T13:37:49.282Z</time></trkpt><trkpt lat="45.7593867" lon="8.9695433"><ele>379.4</ele><time>2026-04-23T13:37:51.282Z</time></trkpt><trkpt lat="45.7592983" lon="8.9695467"><ele>378.8</ele><time>2026-04-23T13:37:53.283Z</time></trkpt><trkpt lat="45.7592367" lon="8.9696083"><ele>378.20000000000005</ele><time>2026-04-23T13:37:55.282Z</time></trkpt><trkpt lat="45.7592433" lon="8.9697183"><ele>377.6</ele><time>2026-04-23T13:37:57.284Z</time></trkpt><trkpt lat="45.7593067" lon="8.9698683"><ele>377.0</ele><time>2026-04-23T13:38:07.282Z</time></trkpt><trkpt lat="45.7593067" lon="8.97001"><ele>376.20000000000005</ele><time>2026-04-23T13:38:10.283Z</time></trkpt><trkpt lat="45.7592483" lon="8.9701083"><ele>375.4</ele><time>2026-04-23T13:38:12.281Z</time></trkpt><trkpt lat="45.75919" lon="8.9702183"><ele>374.6</ele><time>2026-04-23T13:38:14.283Z</time></trkpt><trkpt lat="45.7591217" lon="8.9703"><ele>373.79999999999995</ele><time>2026-04-23T13:38:16.282Z</time></trkpt><trkpt lat="45.759035" lon="8.9703517"><ele>373.0</ele><time>2026-04-23T13:38:18.282Z</time></trkpt><trkpt lat="45.7589467" lon="8.9703717"><ele>373.0</ele><time>2026-04-23T13:38:20.283Z</time></trkpt><trkpt lat="45.7588533" lon="8.9703833"><ele>373.0</ele><time>2026-04-23T13:38:22.282Z</time></trkpt><trkpt lat="45.758765" lon="8.97037"><ele>373.0</ele><time>2026-04-23T13:38:24.282Z</time></trkpt><trkpt lat="45.7586867" lon="8.97036"><ele>373.0</ele><time>2026-04-23T13:38:26.283Z</time></trkpt><trkpt lat="45.7586117" lon="8.97034"><ele>373.0</ele><time>2026-04-23T13:38:28.283Z</time></trkpt><trkpt lat="45.758535" lon="8.9703167"><ele>373.0</ele><time>2026-04-23T13:38:30.283Z</time></trkpt><trkpt lat="45.75844" lon="8.970315"><ele>373.0</ele><time>2026-04-23T13:38:32.282Z</time></trkpt><trkpt lat="45.75835" lon="8.97034"><ele>373.0</ele><time>2026-04-23T13:38:34.282Z</time></trkpt><trkpt lat="45.75825" lon="8.9703817"><ele>373.0</ele><time>2026-04-23T13:38:36.283Z</time></trkpt><trkpt lat="45.758145" lon="8.970395"><ele>373.0</ele><time>2026-04-23T13:38:38.283Z</time></trkpt><trkpt lat="45.75805" lon="8.9704083"><ele>373.0</ele><time>2026-04-23T13:38:40.283Z</time></trkpt><trkpt lat="45.7579633" lon="8.97045"><ele>373.0</ele><time>2026-04-23T13:38:43.283Z</time></trkpt><trkpt lat="45.7578233" lon="8.9705133"><ele>373.0</ele><time>2026-04-23T13:38:55.283Z</time></trkpt><trkpt lat="45.7577383" lon="8.9704983"><ele>373.0</ele><time>2026-04-23T13:38:57.281Z</time></trkpt><trkpt lat="45.757615" lon="8.9704667"><ele>373.0</ele><time>2026-04-23T13:38:59.281Z</time></trkpt><trkpt lat="45.7575517" lon="8.970445"><ele>373.0</ele><time>2026-04-23T13:39:00.282Z</time></trkpt><trkpt lat="45.7574883" lon="8.970425"><ele>372.0</ele><time>2026-04-23T13:39:01.281Z</time></trkpt><trkpt lat="45.75738" lon="8.970435"><ele>371.0</ele><time>2026-04-23T13:39:03.281Z</time></trkpt><trkpt lat="45.7573183" lon="8.9705433"><ele>370.0</ele><time>2026-04-23T13:39:05.282Z</time></trkpt><trkpt lat="45.75728" lon="8.97066"><ele>369.0</ele><time>2026-04-23T13:39:07.283Z</time></trkpt><trkpt lat="45.7572133" lon="8.9707317"><ele>368.0</ele><time>2026-04-23T13:39:09.281Z</time></trkpt><trkpt lat="45.7571283" lon="8.970725"><ele>368.0</ele><time>2026-04-23T13:39:11.281Z</time></trkpt><trkpt lat="45.75704" lon="8.970705"><ele>368.0</ele><time>2026-04-23T13:39:13.282Z</time></trkpt><trkpt lat="45.7569483" lon="8.97069"><ele>368.0</ele><time>2026-04-23T13:39:15.281Z</time></trkpt><trkpt lat="45.7568617" lon="8.9706667"><ele>368.0</ele><time>2026-04-23T13:39:17.281Z</time></trkpt><trkpt lat="45.75677" lon="8.9706517"><ele>368.0</ele><time>2026-04-23T13:39:19.283Z</time></trkpt><trkpt lat="45.7566833" lon="8.9706383"><ele>368.0</ele><time>2026-04-23T13:39:21.283Z</time></trkpt><trkpt lat="45.756595" lon="8.9706233"><ele>367.0</ele><time>2026-04-23T13:39:23.283Z</time></trkpt><trkpt lat="45.7565067" lon="8.970615"><ele>366.0</ele><time>2026-04-23T13:39:25.283Z</time></trkpt><trkpt lat="45.7564133" lon="8.9706267"><ele>365.0</ele><time>2026-04-23T13:39:27.284Z</time></trkpt><trkpt lat="45.7563217" lon="8.970645"><ele>364.0</ele><time>2026-04-23T13:39:29.283Z</time></trkpt><trkpt lat="45.75623" lon="8.9706633"><ele>363.0</ele><time>2026-04-23T13:39:31.283Z</time></trkpt><trkpt lat="45.7561433" lon="8.970685"><ele>363.0</ele><time>2026-04-23T13:39:33.282Z</time></trkpt><trkpt lat="45.7560567" lon="8.9707367"><ele>363.0</ele><time>2026-04-23T13:39:35.282Z</time></trkpt><trkpt lat="45.7559717" lon="8.9707767"><ele>363.0</ele><time>2026-04-23T13:39:37.283Z</time></trkpt><trkpt lat="45.7559067" lon="8.97085"><ele>363.0</ele><time>2026-04-23T13:39:39.281Z</time></trkpt><trkpt lat="45.7558733" lon="8.9709683"><ele>363.0</ele><time>2026-04-23T13:39:41.282Z</time></trkpt><trkpt lat="45.7558683" lon="8.9711067"><ele>363.2</ele><time>2026-04-23T13:39:43.282Z</time></trkpt><trkpt lat="45.755805" lon="8.971185"><ele>363.4</ele><time>2026-04-23T13:39:45.281Z</time></trkpt><trkpt lat="45.75572" lon="8.9711967"><ele>363.59999999999997</ele><time>2026-04-23T13:39:47.282Z</time></trkpt><trkpt lat="45.7556317" lon="8.971205"><ele>363.79999999999995</ele><time>2026-04-23T13:39:49.282Z</time></trkpt><trkpt lat="45.7555333" lon="8.9712167"><ele>364.0</ele><time>2026-04-23T13:39:51.283Z</time></trkpt><trkpt lat="45.7554317" lon="8.9712217"><ele>364.0</ele><time>2026-04-23T13:39:53.282Z</time></trkpt><trkpt lat="45.755335" lon="8.971195"><ele>364.0</ele><time>2026-04-23T13:39:55.285Z</time></trkpt><trkpt lat="45.7552567" lon="8.97115"><ele>364.0</ele><time>2026-04-23T13:39:57.283Z</time></trkpt><trkpt lat="45.7551967" lon="8.9710933"><ele>364.0</ele><time>2026-04-23T13:39:59.282Z</time></trkpt><trkpt lat="45.755145" lon="8.971025"><ele>364.0</ele><time>2026-04-23T13:40:01.283Z</time></trkpt><trkpt lat="45.755095" lon="8.9709433"><ele>364.0</ele><time>2026-04-23T13:40:03.283Z</time></trkpt><trkpt lat="45.75504" lon="8.970865"><ele>364.16666666666663</ele><time>2026-04-23T13:40:05.282Z</time></trkpt><trkpt lat="45.7550083" lon="8.9707783"><ele>364.3333333333333</ele><time>2026-04-23T13:40:07.282Z</time></trkpt><trkpt lat="45.7549683" lon="8.9706883"><ele>364.5</ele><time>2026-04-23T13:40:09.282Z</time></trkpt><trkpt lat="45.7549167" lon="8.9705933"><ele>364.6666666666667</ele><time>2026-04-23T13:40:11.281Z</time></trkpt><trkpt lat="45.7548667" lon="8.9705017"><ele>364.83333333333337</ele><time>2026-04-23T13:40:13.281Z</time></trkpt><trkpt lat="45.7548183" lon="8.9704133"><ele>365.0</ele><time>2026-04-23T13:40:15.281Z</time></trkpt><trkpt lat="45.754775" lon="8.9703233"><ele>365.0</ele><time>2026-04-23T13:40:17.282Z</time></trkpt><trkpt lat="45.7547267" lon="8.970235"><ele>365.0</ele><time>2026-04-23T13:40:19.281Z</time></trkpt><trkpt lat="45.754685" lon="8.9701483"><ele>365.0</ele><time>2026-04-23T13:40:21.282Z</time></trkpt><trkpt lat="45.7546467" lon="8.9700533"><ele>365.0</ele><time>2026-04-23T13:40:23.282Z</time></trkpt><trkpt lat="45.7546067" lon="8.969955"><ele>365.0</ele><time>2026-04-23T13:40:25.281Z</time></trkpt><trkpt lat="45.754575" lon="8.969855"><ele>365.0</ele><time>2026-04-23T13:40:27.282Z</time></trkpt><trkpt lat="45.754545" lon="8.9697533"><ele>364.6666666666667</ele><time>2026-04-23T13:40:29.284Z</time></trkpt><trkpt lat="45.7545167" lon="8.96966"><ele>364.33333333333337</ele><time>2026-04-23T13:40:31.282Z</time></trkpt><trkpt lat="45.7544767" lon="8.9695467"><ele>364.0</ele><time>2026-04-23T13:40:34.281Z</time></trkpt><trkpt lat="45.7544667" lon="8.9694283"><ele>363.6666666666667</ele><time>2026-04-23T13:41:06.282Z</time></trkpt><trkpt lat="45.75444" lon="8.9692883"><ele>363.3333333333333</ele><time>2026-04-23T13:41:14.282Z</time></trkpt><trkpt lat="45.7544217" lon="8.9691717"><ele>363.0</ele><time>2026-04-23T13:41:17.281Z</time></trkpt><trkpt lat="45.7543983" lon="8.969075"><ele>363.4285714285714</ele><time>2026-04-23T13:41:19.283Z</time></trkpt><trkpt lat="45.7543917" lon="8.968975"><ele>363.85714285714283</ele><time>2026-04-23T13:41:21.283Z</time></trkpt><trkpt lat="45.7543667" lon="8.96888"><ele>364.2857142857143</ele><time>2026-04-23T13:41:23.282Z</time></trkpt><trkpt lat="45.7543383" lon="8.9687767"><ele>364.71428571428567</ele><time>2026-04-23T13:41:25.282Z</time></trkpt><trkpt lat="45.75431" lon="8.9686733"><ele>365.14285714285717</ele><time>2026-04-23T13:41:27.283Z</time></trkpt><trkpt lat="45.7542883" lon="8.9685733"><ele>365.57142857142856</ele><time>2026-04-23T13:41:29.282Z</time></trkpt><trkpt lat="45.754265" lon="8.968475"><ele>366.0</ele><time>2026-04-23T13:41:31.281Z</time></trkpt><trkpt lat="45.7542383" lon="8.96837"><ele>366.5</ele><time>2026-04-23T13:41:33.283Z</time></trkpt><trkpt lat="45.7542183" lon="8.968255"><ele>367.0</ele><time>2026-04-23T13:41:35.284Z</time></trkpt><trkpt lat="45.7541933" lon="8.968135"><ele>367.5</ele><time>2026-04-23T13:41:37.282Z</time></trkpt><trkpt lat="45.7541533" lon="8.9680167"><ele>368.0</ele><time>2026-04-23T13:41:39.283Z</time></trkpt><trkpt lat="45.7541167" lon="8.9678983"><ele>368.5</ele><time>2026-04-23T13:41:41.281Z</time></trkpt><trkpt lat="45.7541067" lon="8.9677883"><ele>369.0</ele><time>2026-04-23T13:41:43.283Z</time></trkpt><trkpt lat="45.7541067" lon="8.9676917"><ele>369.0</ele><time>2026-04-23T13:41:45.283Z</time></trkpt><trkpt lat="45.7540717" lon="8.9676"><ele>369.0</ele><time>2026-04-23T13:41:49.282Z</time></trkpt><trkpt lat="45.7540667" lon="8.9674183"><ele>369.0</ele><time>2026-04-23T13:42:00.282Z</time></trkpt><trkpt lat="45.7541017" lon="8.9673117"><ele>369.0</ele><time>2026-04-23T13:42:03.283Z</time></trkpt><trkpt lat="45.7541367" lon="8.9672067"><ele>369.0</ele><time>2026-04-23T13:42:05.283Z</time></trkpt><trkpt lat="45.754165" lon="8.9670983"><ele>369.0</ele><time>2026-04-23T13:42:07.284Z</time></trkpt><trkpt lat="45.7541917" lon="8.9669867"><ele>369.2857142857143</ele><time>2026-04-23T13:42:09.284Z</time></trkpt><trkpt lat="45.7542283" lon="8.9668983"><ele>369.57142857142856</ele><time>2026-04-23T13:42:11.282Z</time></trkpt><trkpt lat="45.754255" lon="8.9668"><ele>369.8571428571429</ele><time>2026-04-23T13:42:13.282Z</time></trkpt><trkpt lat="45.75428" lon="8.9666967"><ele>370.1428571428571</ele><time>2026-04-23T13:42:15.284Z</time></trkpt><trkpt lat="45.754295" lon="8.9665883"><ele>370.42857142857144</ele><time>2026-04-23T13:42:17.283Z</time></trkpt><trkpt lat="45.75429" lon="8.9664967"><ele>370.7142857142857</ele><time>2026-04-23T13:42:19.284Z</time></trkpt><trkpt lat="45.7542733" lon="8.9663867"><ele>371.0</ele><time>2026-04-23T13:42:22.281Z</time></trkpt><trkpt lat="45.7542567" lon="8.9662667"><ele>371.83333333333337</ele><time>2026-04-23T13:42:25.281Z</time></trkpt><trkpt lat="45.754245" lon="8.96614"><ele>372.6666666666667</ele><time>2026-04-23T13:42:28.283Z</time></trkpt><trkpt lat="45.7542183" lon="8.966045"><ele>373.5</ele><time>2026-04-23T13:42:31.282Z</time></trkpt><trkpt lat="45.7541933" lon="8.9659283"><ele>374.3333333333333</ele><time>2026-04-23T13:42:35.283Z</time></trkpt><trkpt lat="45.7541583" lon="8.9658267"><ele>375.16666666666663</ele><time>2026-04-23T13:42:38.284Z</time></trkpt><trkpt lat="45.7541367" lon="8.96572"><ele>376.0</ele><time>2026-04-23T13:42:41.282Z</time></trkpt><trkpt lat="45.7541283" lon="8.9656117"><ele>376.8333333333333</ele><time>2026-04-23T13:42:45.282Z</time></trkpt><trkpt lat="45.754115" lon="8.9655133"><ele>377.66666666666663</ele><time>2026-04-23T13:42:49.282Z</time></trkpt><trkpt lat="45.75412" lon="8.9654233"><ele>378.5</ele><time>2026-04-23T13:42:53.281Z</time></trkpt><trkpt lat="45.7540917" lon="8.9652933"><ele>379.3333333333333</ele><time>2026-04-23T13:43:00.282Z</time></trkpt><trkpt lat="45.75406" lon="8.96515"><ele>380.1666666666667</ele><time>2026-04-23T13:43:09.282Z</time></trkpt><trkpt lat="45.754055" lon="8.9650483"><ele>381.0</ele><time>2026-04-23T13:43:12.281Z</time></trkpt><trkpt lat="45.754055" lon="8.96494"><ele>382.1666666666667</ele><time>2026-04-23T13:43:16.281Z</time></trkpt><trkpt lat="45.7540517" lon="8.9648333"><ele>383.33333333333337</ele><time>2026-04-23T13:43:21.282Z</time></trkpt><trkpt lat="45.7540217" lon="8.96473"><ele>384.5</ele><time>2026-04-23T13:43:25.281Z</time></trkpt><trkpt lat="45.7539967" lon="8.9646233"><ele>385.6666666666667</ele><time>2026-04-23T13:43:32.282Z</time></trkpt><trkpt lat="45.7539467" lon="8.964555"><ele>386.83333333333337</ele><time>2026-04-23T13:43:35.283Z</time></trkpt><trkpt lat="45.7538867" lon="8.9645033"><ele>388.0</ele><time>2026-04-23T13:43:39.283Z</time></trkpt><trkpt lat="45.7538167" lon="8.9644083"><ele>388.0</ele><time>2026-04-23T13:43:45.283Z</time></trkpt><trkpt lat="45.7537833" lon="8.964325"><ele>388.0</ele><time>2026-04-23T13:43:49.283Z</time></trkpt><trkpt lat="45.7537517" lon="8.9642417"><ele>388.0</ele><time>2026-04-23T13:43:52.283Z</time></trkpt><trkpt lat="45.7537517" lon="8.96415"><ele>388.0</ele><time>2026-04-23T13:43:55.283Z</time></trkpt><trkpt lat="45.753745" lon="8.9640433"><ele>388.0</ele><time>2026-04-23T13:43:58.281Z</time></trkpt><trkpt lat="45.7537333" lon="8.9639517"><ele>388.0</ele><time>2026-04-23T13:44:01.283Z</time></trkpt><trkpt lat="45.7537067" lon="8.9638533"><ele>388.0</ele><time>2026-04-23T13:44:04.284Z</time></trkpt><trkpt lat="45.7536733" lon="8.9637467"><ele>388.7142857142857</ele><time>2026-04-23T13:44:08.284Z</time></trkpt><trkpt lat="45.7536467" lon="8.9636467"><ele>389.42857142857144</ele><time>2026-04-23T13:44:12.284Z</time></trkpt><trkpt lat="45.75363" lon="8.96355"><ele>390.14285714285717</ele><time>2026-04-23T13:44:16.283Z</time></trkpt><trkpt lat="45.7536117" lon="8.963455"><ele>390.8571428571429</ele><time>2026-04-23T13:44:19.284Z</time></trkpt><trkpt lat="45.7535933" lon="8.9633683"><ele>391.57142857142856</ele><time>2026-04-23T13:44:22.283Z</time></trkpt><trkpt lat="45.75358" lon="8.963265"><ele>392.28571428571433</ele><time>2026-04-23T13:44:26.284Z</time></trkpt><trkpt lat="45.753605" lon="8.9631683"><ele>393.0</ele><time>2026-04-23T13:44:30.282Z</time></trkpt><trkpt lat="45.7536333" lon="8.9630517"><ele>393.3333333333333</ele><time>2026-04-23T13:44:34.284Z</time></trkpt><trkpt lat="45.753645" lon="8.9629233"><ele>393.66666666666663</ele><time>2026-04-23T13:44:37.283Z</time></trkpt><trkpt lat="45.7536933" lon="8.9628433"><ele>394.0</ele><time>2026-04-23T13:44:40.285Z</time></trkpt><trkpt lat="45.7537483" lon="8.9627767"><ele>394.3333333333333</ele><time>2026-04-23T13:44:43.284Z</time></trkpt><trkpt lat="45.7538117" lon="8.962705"><ele>394.66666666666663</ele><time>2026-04-23T13:44:46.283Z</time></trkpt><trkpt lat="45.7538617" lon="8.96264"><ele>395.0</ele><time>2026-04-23T13:44:49.283Z</time></trkpt><trkpt lat="45.7539217" lon="8.9625783"><ele>394.49999999999994</ele><time>2026-04-23T13:44:52.283Z</time></trkpt><trkpt lat="45.7539783" lon="8.9624867"><ele>394.0</ele><time>2026-04-23T13:44:55.283Z</time></trkpt><trkpt lat="45.75403" lon="8.962415"><ele>393.5</ele><time>2026-04-23T13:44:57.283Z</time></trkpt><trkpt lat="45.7540883" lon="8.9623383"><ele>393.0</ele><time>2026-04-23T13:44:59.284Z</time></trkpt><trkpt lat="45.75414" lon="8.9622717"><ele>392.49999999999994</ele><time>2026-04-23T13:45:01.282Z</time></trkpt><trkpt lat="45.7542033" lon="8.9622133"><ele>392.0</ele><time>2026-04-23T13:45:03.283Z</time></trkpt><trkpt lat="45.75427" lon="8.9621683"><ele>391.99999999999994</ele><time>2026-04-23T13:45:05.283Z</time></trkpt><trkpt lat="45.75434" lon="8.96213"><ele>392.0</ele><time>2026-04-23T13:45:07.281Z</time></trkpt><trkpt lat="45.7544083" lon="8.96207"><ele>392.0</ele><time>2026-04-23T13:45:09.281Z</time></trkpt><trkpt lat="45.7544817" lon="8.9620083"><ele>392.0</ele><time>2026-04-23T13:45:11.283Z</time></trkpt><trkpt lat="45.7545567" lon="8.96195"><ele>391.99999999999994</ele><time>2026-04-23T13:45:13.282Z</time></trkpt><trkpt lat="45.7546183" lon="8.9618667"><ele>392.0</ele><time>2026-04-23T13:45:15.282Z</time></trkpt><trkpt lat="45.7547067" lon="8.9618067"><ele>392.8333333333333</ele><time>2026-04-23T13:45:17.284Z</time></trkpt><trkpt lat="45.7547817" lon="8.9617833"><ele>393.66666666666663</ele><time>2026-04-23T13:45:19.284Z</time></trkpt><trkpt lat="45.754855" lon="8.9617717"><ele>394.5</ele><time>2026-04-23T13:45:21.284Z</time></trkpt><trkpt lat="45.75495" lon="8.96178"><ele>395.33333333333337</ele><time>2026-04-23T13:45:24.284Z</time></trkpt><trkpt lat="45.7550383" lon="8.9618017"><ele>396.1666666666667</ele><time>2026-04-23T13:45:27.283Z</time></trkpt><trkpt lat="45.7551167" lon="8.9618517"><ele>397.0</ele><time>2026-04-23T13:45:30.283Z</time></trkpt><trkpt lat="45.7551783" lon="8.961925"><ele>397.1666666666667</ele><time>2026-04-23T13:45:33.283Z</time></trkpt><trkpt lat="45.7552583" lon="8.96199"><ele>397.33333333333337</ele><time>2026-04-23T13:45:36.284Z</time></trkpt><trkpt lat="45.755315" lon="8.9620467"><ele>397.5</ele><time>2026-04-23T13:45:38.283Z</time></trkpt><trkpt lat="45.7553833" lon="8.962115"><ele>397.66666666666663</ele><time>2026-04-23T13:45:41.283Z</time></trkpt><trkpt lat="45.755445" lon="8.96219"><ele>397.8333333333333</ele><time>2026-04-23T13:45:44.283Z</time></trkpt><trkpt lat="45.7555167" lon="8.9622483"><ele>398.0</ele><time>2026-04-23T13:45:47.284Z</time></trkpt><trkpt lat="45.7555917" lon="8.9622683"><ele>397.99999999999994</ele><time>2026-04-23T13:45:50.284Z</time></trkpt><trkpt lat="45.7556567" lon="8.9622783"><ele>398.0</ele><time>2026-04-23T13:45:52.282Z</time></trkpt><trkpt lat="45.7557233" lon="8.9622617"><ele>398.0</ele><time>2026-04-23T13:45:54.282Z</time></trkpt><trkpt lat="45.75578" lon="8.9622133"><ele>398.0</ele><time>2026-04-23T13:45:56.284Z</time></trkpt><trkpt lat="45.7558283" lon="8.962155"><ele>398.0</ele><time>2026-04-23T13:45:58.283Z</time></trkpt><trkpt lat="45.7558917" lon="8.9620933"><ele>397.99999999999994</ele><time>2026-04-23T13:46:01.283Z</time></trkpt><trkpt lat="45.75595" lon="8.961995"><ele>398.0</ele><time>2026-04-23T13:46:05.283Z</time></trkpt><trkpt lat="45.75599" lon="8.9619183"><ele>397.99999999999994</ele><time>2026-04-23T13:46:07.283Z</time></trkpt><trkpt lat="45.7560417" lon="8.96186"><ele>398.0</ele><time>2026-04-23T13:46:09.284Z</time></trkpt><trkpt lat="45.756115" lon="8.96179"><ele>398.0</ele><time>2026-04-23T13:46:12.282Z</time></trkpt><trkpt lat="45.7562017" lon="8.96173"><ele>398.0</ele><time>2026-04-23T13:46:15.281Z</time></trkpt><trkpt lat="45.756275" lon="8.9617067"><ele>397.99999999999994</ele><time>2026-04-23T13:46:17.284Z</time></trkpt><trkpt lat="45.75635" lon="8.9616533"><ele>398.0</ele><time>2026-04-23T13:46:20.283Z</time></trkpt><trkpt lat="45.756405" lon="8.9615833"><ele>398.66666666666663</ele><time>2026-04-23T13:46:23.284Z</time></trkpt><trkpt lat="45.7564567" lon="8.961525"><ele>399.3333333333333</ele><time>2026-04-23T13:46:26.282Z</time></trkpt><trkpt lat="45.7565217" lon="8.9614567"><ele>400.0</ele><time>2026-04-23T13:46:29.281Z</time></trkpt><trkpt lat="45.7565783" lon="8.961355"><ele>400.66666666666663</ele><time>2026-04-23T13:46:32.283Z</time></trkpt><trkpt lat="45.7566567" lon="8.9612967"><ele>401.3333333333333</ele><time>2026-04-23T13:46:35.283Z</time></trkpt><trkpt lat="45.7567117" lon="8.96125"><ele>402.0</ele><time>2026-04-23T13:46:37.281Z</time></trkpt><trkpt lat="45.7567633" lon="8.961185"><ele>402.0</ele><time>2026-04-23T13:46:39.282Z</time></trkpt><trkpt lat="45.7568017" lon="8.9611117"><ele>402.0</ele><time>2026-04-23T13:46:41.282Z</time></trkpt><trkpt lat="45.7568517" lon="8.9610567"><ele>402.0</ele><time>2026-04-23T13:46:43.282Z</time></trkpt><trkpt lat="45.7569317" lon="8.9610117"><ele>402.0</ele><time>2026-04-23T13:46:46.282Z</time></trkpt><trkpt lat="45.7569983" lon="8.9609567"><ele>402.0</ele><time>2026-04-23T13:46:48.282Z</time></trkpt><trkpt lat="45.757065" lon="8.960895"><ele>402.0</ele><time>2026-04-23T13:46:50.281Z</time></trkpt><trkpt lat="45.7571333" lon="8.960855"><ele>402.0</ele><time>2026-04-23T13:46:52.282Z</time></trkpt><trkpt lat="45.7572133" lon="8.96078"><ele>402.4285714285714</ele><time>2026-04-23T13:46:55.282Z</time></trkpt><trkpt lat="45.7572717" lon="8.9607267"><ele>402.8571428571429</ele><time>2026-04-23T13:46:57.281Z</time></trkpt><trkpt lat="45.7573217" lon="8.9606567"><ele>403.2857142857143</ele><time>2026-04-23T13:46:59.283Z</time></trkpt><trkpt lat="45.7573667" lon="8.96058"><ele>403.71428571428567</ele><time>2026-04-23T13:47:01.283Z</time></trkpt><trkpt lat="45.7574133" lon="8.9605067"><ele>404.1428571428571</ele><time>2026-04-23T13:47:03.283Z</time></trkpt><trkpt lat="45.7574633" lon="8.9604383"><ele>404.57142857142856</ele><time>2026-04-23T13:47:05.282Z</time></trkpt><trkpt lat="45.7575217" lon="8.960385"><ele>405.0</ele><time>2026-04-23T13:47:07.282Z</time></trkpt><trkpt lat="45.7575733" lon="8.9603317"><ele>405.0</ele><time>2026-04-23T13:47:09.281Z</time></trkpt><trkpt lat="45.7576317" lon="8.9602817"><ele>405.0</ele><time>2026-04-23T13:47:11.283Z</time></trkpt><trkpt lat="45.7576917" lon="8.9602133"><ele>405.0</ele><time>2026-04-23T13:47:13.282Z</time></trkpt><trkpt lat="45.757755" lon="8.960155"><ele>405.0</ele><time>2026-04-23T13:47:15.283Z</time></trkpt><trkpt lat="45.7578067" lon="8.96009"><ele>405.0</ele><time>2026-04-23T13:47:17.284Z</time></trkpt><trkpt lat="45.757865" lon="8.9600133"><ele>405.0</ele><time>2026-04-23T13:47:19.281Z</time></trkpt><trkpt lat="45.75791" lon="8.9599133"><ele>405.5</ele><time>2026-04-23T13:47:21.282Z</time></trkpt><trkpt lat="45.75796" lon="8.9598283"><ele>406.0</ele><time>2026-04-23T13:47:23.283Z</time></trkpt><trkpt lat="45.7580283" lon="8.9597417"><ele>406.5</ele><time>2026-04-23T13:47:26.283Z</time></trkpt><trkpt lat="45.758085" lon="8.9596783"><ele>407.0</ele><time>2026-04-23T13:47:28.282Z</time></trkpt><trkpt lat="45.75816" lon="8.9596417"><ele>407.5</ele><time>2026-04-23T13:47:31.283Z</time></trkpt><trkpt lat="45.7582333" lon="8.95956"><ele>408.0</ele><time>2026-04-23T13:47:34.283Z</time></trkpt><trkpt lat="45.7582733" lon="8.95949"><ele>408.0</ele><time>2026-04-23T13:47:36.283Z</time></trkpt><trkpt lat="45.7583367" lon="8.9594067"><ele>408.0</ele><time>2026-04-23T13:47:39.281Z</time></trkpt><trkpt lat="45.7584033" lon="8.9593367"><ele>408.0</ele><time>2026-04-23T13:47:42.282Z</time></trkpt><trkpt lat="45.7584333" lon="8.9592333"><ele>408.0</ele><time>2026-04-23T13:47:45.283Z</time></trkpt><trkpt lat="45.7584683" lon="8.9591433"><ele>408.0</ele><time>2026-04-23T13:47:47.284Z</time></trkpt><trkpt lat="45.7585117" lon="8.9590617"><ele>408.0</ele><time>2026-04-23T13:47:49.285Z</time></trkpt><trkpt lat="45.7585733" lon="8.9589667"><ele>407.7142857142857</ele><time>2026-04-23T13:47:52.283Z</time></trkpt><trkpt lat="45.75862" lon="8.9589"><ele>407.42857142857144</ele><time>2026-04-23T13:47:54.284Z</time></trkpt><trkpt lat="45.758675" lon="8.9588417"><ele>407.1428571428571</ele><time>2026-04-23T13:47:56.284Z</time></trkpt><trkpt lat="45.7587267" lon="8.9587783"><ele>406.8571428571429</ele><time>2026-04-23T13:47:58.282Z</time></trkpt><trkpt lat="45.7587983" lon="8.9587483"><ele>406.57142857142856</ele><time>2026-04-23T13:48:00.282Z</time></trkpt><trkpt lat="45.7588567" lon="8.9586667"><ele>406.2857142857143</ele><time>2026-04-23T13:48:03.281Z</time></trkpt><trkpt lat="45.7589133" lon="8.9586067"><ele>406.0</ele><time>2026-04-23T13:48:06.284Z</time></trkpt><trkpt lat="45.75896" lon="8.9585317"><ele>406.00000000000006</ele><time>2026-04-23T13:48:09.283Z</time></trkpt><trkpt lat="45.7590317" lon="8.9585083"><ele>406.0</ele><time>2026-04-23T13:48:12.284Z</time></trkpt><trkpt lat="45.759075" lon="8.9584283"><ele>406.0</ele><time>2026-04-23T13:48:53.283Z</time></trkpt><trkpt lat="45.7591367" lon="8.95835"><ele>406.0</ele><time>2026-04-23T13:48:58.282Z</time></trkpt><trkpt lat="45.759205" lon="8.9582933"><ele>406.00000000000006</ele><time>2026-04-23T13:49:01.285Z</time></trkpt><trkpt lat="45.75925" lon="8.9582217"><ele>406.0</ele><time>2026-04-23T13:49:04.284Z</time></trkpt><trkpt lat="45.7592317" lon="8.9581017"><ele>406.1666666666667</ele><time>2026-04-23T13:49:07.284Z</time></trkpt><trkpt lat="45.7591967" lon="8.958005"><ele>406.33333333333337</ele><time>2026-04-23T13:49:10.284Z</time></trkpt><trkpt lat="45.75917" lon="8.9578967"><ele>406.5</ele><time>2026-04-23T13:49:13.281Z</time></trkpt><trkpt lat="45.7591683" lon="8.95778"><ele>406.66666666666663</ele><time>2026-04-23T13:49:17.284Z</time></trkpt><trkpt lat="45.7591617" lon="8.9576883"><ele>406.8333333333333</ele><time>2026-04-23T13:49:19.284Z</time></trkpt><trkpt lat="45.7591433" lon="8.9576017"><ele>407.0</ele><time>2026-04-23T13:49:21.284Z</time></trkpt><trkpt lat="45.7591633" lon="8.9574833"><ele>407.3333333333333</ele><time>2026-04-23T13:49:24.282Z</time></trkpt><trkpt lat="45.7592417" lon="8.9574217"><ele>407.66666666666663</ele><time>2026-04-23T13:49:27.282Z</time></trkpt><trkpt lat="45.759325" lon="8.95737"><ele>408.0</ele><time>2026-04-23T13:49:30.282Z</time></trkpt><trkpt lat="45.75939" lon="8.9573567"><ele>408.33333333333337</ele><time>2026-04-23T13:49:32.283Z</time></trkpt><trkpt lat="45.7594633" lon="8.95732"><ele>408.6666666666667</ele><time>2026-04-23T13:49:34.282Z</time></trkpt><trkpt lat="45.7595283" lon="8.9573017"><ele>409.0</ele><time>2026-04-23T13:49:36.283Z</time></trkpt><trkpt lat="45.759595" lon="8.957275"><ele>409.1666666666667</ele><time>2026-04-23T13:49:38.283Z</time></trkpt><trkpt lat="45.7596833" lon="8.9572283"><ele>409.33333333333337</ele><time>2026-04-23T13:49:41.283Z</time></trkpt><trkpt lat="45.759765" lon="8.95719"><ele>409.5</ele><time>2026-04-23T13:49:43.283Z</time></trkpt><trkpt lat="45.759825" lon="8.9571317"><ele>409.66666666666663</ele><time>2026-04-23T13:49:45.282Z</time></trkpt><trkpt lat="45.7598667" lon="8.9570617"><ele>409.8333333333333</ele><time>2026-04-23T13:49:47.283Z</time></trkpt><trkpt lat="45.7598783" lon="8.9569467"><ele>410.0</ele><time>2026-04-23T13:49:50.283Z</time></trkpt><trkpt lat="45.759855" lon="8.9568533"><ele>409.99999999999994</ele><time>2026-04-23T13:49:52.284Z</time></trkpt><trkpt lat="45.759825" lon="8.9567617"><ele>410.0</ele><time>2026-04-23T13:49:54.283Z</time></trkpt><trkpt lat="45.759805" lon="8.956675"><ele>410.0</ele><time>2026-04-23T13:49:56.283Z</time></trkpt><trkpt lat="45.7597817" lon="8.956545"><ele>410.0</ele><time>2026-04-23T13:49:59.283Z</time></trkpt><trkpt lat="45.7597667" lon="8.95644"><ele>409.99999999999994</ele><time>2026-04-23T13:50:02.282Z</time></trkpt><trkpt lat="45.75973" lon="8.9563217"><ele>410.0</ele><time>2026-04-23T13:50:05.281Z</time></trkpt><trkpt lat="45.7597133" lon="8.9562217"><ele>409.49999999999994</ele><time>2026-04-23T13:50:07.282Z</time></trkpt><trkpt lat="45.759695" lon="8.9561017"><ele>409.0</ele><time>2026-04-23T13:50:10.283Z</time></trkpt><trkpt lat="45.7596917" lon="8.9560067"><ele>408.5</ele><time>2026-04-23T13:50:13.282Z</time></trkpt><trkpt lat="45.7596567" lon="8.9558883"><ele>408.0</ele><time>2026-04-23T13:50:16.282Z</time></trkpt><trkpt lat="45.7596267" lon="8.9558033"><ele>407.49999999999994</ele><time>2026-04-23T13:50:18.282Z</time></trkpt><trkpt lat="45.7595967" lon="8.9557017"><ele>407.0</ele><time>2026-04-23T13:50:20.284Z</time></trkpt><trkpt lat="45.7595733" lon="8.9555917"><ele>406.5714285714286</ele><time>2026-04-23T13:50:22.281Z</time></trkpt><trkpt lat="45.7595417" lon="8.9554933"><ele>406.14285714285717</ele><time>2026-04-23T13:50:24.283Z</time></trkpt><trkpt lat="45.7595167" lon="8.9554067"><ele>405.7142857142857</ele><time>2026-04-23T13:50:26.281Z</time></trkpt><trkpt lat="45.7594967" lon="8.95532"><ele>405.28571428571433</ele><time>2026-04-23T13:50:28.281Z</time></trkpt><trkpt lat="45.759475" lon="8.9552283"><ele>404.85714285714283</ele><time>2026-04-23T13:50:30.282Z</time></trkpt><trkpt lat="45.7594633" lon="8.95513"><ele>404.42857142857144</ele><time>2026-04-23T13:50:32.281Z</time></trkpt><trkpt lat="45.759455" lon="8.9550317"><ele>404.0</ele><time>2026-04-23T13:50:34.281Z</time></trkpt><trkpt lat="45.7594417" lon="8.9549283"><ele>404.0</ele><time>2026-04-23T13:50:36.28Z</time></trkpt><trkpt lat="45.7594267" lon="8.95483"><ele>404.0</ele><time>2026-04-23T13:50:38.281Z</time></trkpt><trkpt lat="45.759415" lon="8.9547317"><ele>404.0</ele><time>2026-04-23T13:50:40.281Z</time></trkpt><trkpt lat="45.7593917" lon="8.954635"><ele>404.0</ele><time>2026-04-23T13:50:42.281Z</time></trkpt><trkpt lat="45.7593667" lon="8.954545"><ele>404.0</ele><time>2026-04-23T13:50:44.282Z</time></trkpt><trkpt lat="45.759345" lon="8.9544517"><ele>404.0</ele><time>2026-04-23T13:50:46.279Z</time></trkpt><trkpt lat="45.759335" lon="8.95435"><ele>404.0</ele><time>2026-04-23T13:50:48.28Z</time></trkpt><trkpt lat="45.75932" lon="8.9542483"><ele>405.57142857142856</ele><time>2026-04-23T13:50:50.281Z</time></trkpt><trkpt lat="45.7593183" lon="8.9541517"><ele>407.1428571428571</ele><time>2026-04-23T13:50:52.281Z</time></trkpt><trkpt lat="45.75931" lon="8.9540467"><ele>408.7142857142857</ele><time>2026-04-23T13:50:54.282Z</time></trkpt><trkpt lat="45.7592883" lon="8.9539617"><ele>410.2857142857143</ele><time>2026-04-23T13:50:56.281Z</time></trkpt><trkpt lat="45.7592483" lon="8.9538667"><ele>411.8571428571429</ele><time>2026-04-23T13:50:58.282Z</time></trkpt><trkpt lat="45.7592067" lon="8.9537783"><ele>413.42857142857144</ele><time>2026-04-23T13:51:00.282Z</time></trkpt><trkpt lat="45.759175" lon="8.9537"><ele>415.0</ele><time>2026-04-23T13:51:02.282Z</time></trkpt><trkpt lat="45.7591283" lon="8.953595"><ele>415.00000000000006</ele><time>2026-04-23T13:51:05.282Z</time></trkpt><trkpt lat="45.7590767" lon="8.95351"><ele>415.0</ele><time>2026-04-23T13:51:08.283Z</time></trkpt><trkpt lat="45.75903" lon="8.953445"><ele>415.0</ele><time>2026-04-23T13:51:10.282Z</time></trkpt><trkpt lat="45.758965" lon="8.9533633"><ele>415.0</ele><time>2026-04-23T13:51:13.281Z</time></trkpt><trkpt lat="45.758955" lon="8.95327"><ele>415.00000000000006</ele><time>2026-04-23T13:51:15.281Z</time></trkpt><trkpt lat="45.7589617" lon="8.9531417"><ele>415.0</ele><time>2026-04-23T13:51:18.282Z</time></trkpt><trkpt lat="45.7590267" lon="8.9530633"><ele>415.42857142857144</ele><time>2026-04-23T13:51:21.283Z</time></trkpt><trkpt lat="45.7591" lon="8.9529833"><ele>415.8571428571429</ele><time>2026-04-23T13:51:24.282Z</time></trkpt><trkpt lat="45.75915" lon="8.952925"><ele>416.2857142857143</ele><time>2026-04-23T13:51:26.281Z</time></trkpt><trkpt lat="45.7592" lon="8.9528633"><ele>416.7142857142857</ele><time>2026-04-23T13:51:28.282Z</time></trkpt><trkpt lat="45.7592483" lon="8.9528033"><ele>417.1428571428571</ele><time>2026-04-23T13:51:30.281Z</time></trkpt><trkpt lat="45.7593017" lon="8.95274"><ele>417.57142857142856</ele><time>2026-04-23T13:51:32.281Z</time></trkpt><trkpt lat="45.75936" lon="8.9526867"><ele>418.0</ele><time>2026-04-23T13:51:34.282Z</time></trkpt><trkpt lat="45.759425" lon="8.95261"><ele>418.6666666666667</ele><time>2026-04-23T13:51:37.282Z</time></trkpt><trkpt lat="45.7594767" lon="8.9525133"><ele>419.33333333333337</ele><time>2026-04-23T13:51:40.283Z</time></trkpt><trkpt lat="45.7595133" lon="8.9524333"><ele>420.0</ele><time>2026-04-23T13:51:42.283Z</time></trkpt><trkpt lat="45.759555" lon="8.95231"><ele>420.66666666666663</ele><time>2026-04-23T13:51:45.282Z</time></trkpt><trkpt lat="45.7595933" lon="8.9522217"><ele>421.3333333333333</ele><time>2026-04-23T13:51:47.281Z</time></trkpt><trkpt lat="45.75962" lon="8.9521333"><ele>422.0</ele><time>2026-04-23T13:51:49.283Z</time></trkpt><trkpt lat="45.7596317" lon="8.95204"><ele>422.0</ele><time>2026-04-23T13:51:51.282Z</time></trkpt><trkpt lat="45.7596667" lon="8.9519583"><ele>422.0</ele><time>2026-04-23T13:51:53.282Z</time></trkpt><trkpt lat="45.759705" lon="8.9518783"><ele>422.0</ele><time>2026-04-23T13:51:55.283Z</time></trkpt><trkpt lat="45.7597367" lon="8.9517867"><ele>422.0</ele><time>2026-04-23T13:51:57.281Z</time></trkpt><trkpt lat="45.7597583" lon="8.9516983"><ele>422.0</ele><time>2026-04-23T13:51:59.282Z</time></trkpt><trkpt lat="45.7597817" lon="8.9516017"><ele>422.0</ele><time>2026-04-23T13:52:01.282Z</time></trkpt><trkpt lat="45.759825" lon="8.9515083"><ele>422.0</ele><time>2026-04-23T13:52:03.281Z</time></trkpt><trkpt lat="45.75987" lon="8.95142"><ele>421.6</ele><time>2026-04-23T13:52:05.281Z</time></trkpt><trkpt lat="45.7599233" lon="8.951285"><ele>421.20000000000005</ele><time>2026-04-23T13:52:07.282Z</time></trkpt><trkpt lat="45.7599783" lon="8.951145"><ele>420.8</ele><time>2026-04-23T13:52:09.282Z</time></trkpt><trkpt lat="45.760025" lon="8.95102"><ele>420.4</ele><time>2026-04-23T13:52:11.282Z</time></trkpt><trkpt lat="45.7600633" lon="8.9508883"><ele>420.0</ele><time>2026-04-23T13:52:13.282Z</time></trkpt><trkpt lat="45.7601133" lon="8.9507567"><ele>419.8333333333333</ele><time>2026-04-23T13:52:15.281Z</time></trkpt><trkpt lat="45.76016" lon="8.95065"><ele>419.66666666666663</ele><time>2026-04-23T13:52:17.283Z</time></trkpt><trkpt lat="45.7601933" lon="8.95054"><ele>419.5</ele><time>2026-04-23T13:52:19.282Z</time></trkpt><trkpt lat="45.7602083" lon="8.9504483"><ele>419.3333333333333</ele><time>2026-04-23T13:52:21.282Z</time></trkpt><trkpt lat="45.7602133" lon="8.9503417"><ele>419.16666666666663</ele><time>2026-04-23T13:52:24.282Z</time></trkpt><trkpt lat="45.760225" lon="8.9502167"><ele>419.0</ele><time>2026-04-23T13:52:27.283Z</time></trkpt><trkpt lat="45.7602433" lon="8.9501283"><ele>419.0</ele><time>2026-04-23T13:52:29.282Z</time></trkpt><trkpt lat="45.7602283" lon="8.95002"><ele>419.0</ele><time>2026-04-23T13:52:31.281Z</time></trkpt><trkpt lat="45.7601917" lon="8.9499067"><ele>419.0</ele><time>2026-04-23T13:52:33.282Z</time></trkpt><trkpt lat="45.7601467" lon="8.949785"><ele>419.0</ele><time>2026-04-23T13:52:35.282Z</time></trkpt><trkpt lat="45.760085" lon="8.9496633"><ele>419.0</ele><time>2026-04-23T13:52:37.282Z</time></trkpt><trkpt lat="45.7600167" lon="8.9495583"><ele>419.4</ele><time>2026-04-23T13:52:39.282Z</time></trkpt><trkpt lat="45.759945" lon="8.9494667"><ele>419.79999999999995</ele><time>2026-04-23T13:52:41.281Z</time></trkpt><trkpt lat="45.759875" lon="8.949385"><ele>420.20000000000005</ele><time>2026-04-23T13:52:43.282Z</time></trkpt><trkpt lat="45.759795" lon="8.949305"><ele>420.6</ele><time>2026-04-23T13:52:45.281Z</time></trkpt><trkpt lat="45.7597217" lon="8.9492"><ele>421.0</ele><time>2026-04-23T13:52:47.282Z</time></trkpt><trkpt lat="45.7596567" lon="8.9490967"><ele>421.00000000000006</ele><time>2026-04-23T13:52:49.282Z</time></trkpt><trkpt lat="45.7595917" lon="8.94899"><ele>421.0</ele><time>2026-04-23T13:52:51.282Z</time></trkpt><trkpt lat="45.759535" lon="8.948895"><ele>421.0</ele><time>2026-04-23T13:52:53.281Z</time></trkpt><trkpt lat="45.75948" lon="8.9488067"><ele>421.0</ele><time>2026-04-23T13:52:55.282Z</time></trkpt><trkpt lat="45.759415" lon="8.948735"><ele>421.00000000000006</ele><time>2026-04-23T13:52:57.282Z</time></trkpt><trkpt lat="45.7593583" lon="8.9486767"><ele>421.0</ele><time>2026-04-23T13:52:59.282Z</time></trkpt><trkpt lat="45.759315" lon="8.94861"><ele>421.14285714285717</ele><time>2026-04-23T13:53:01.282Z</time></trkpt><trkpt lat="45.7592733" lon="8.9485283"><ele>421.2857142857143</ele><time>2026-04-23T13:53:03.281Z</time></trkpt><trkpt lat="45.7592383" lon="8.9484417"><ele>421.42857142857144</ele><time>2026-04-23T13:53:05.282Z</time></trkpt><trkpt lat="45.7591983" lon="8.9483533"><ele>421.57142857142856</ele><time>2026-04-23T13:53:07.281Z</time></trkpt><trkpt lat="45.759165" lon="8.948255"><ele>421.7142857142857</ele><time>2026-04-23T13:53:09.28Z</time></trkpt><trkpt lat="45.7591367" lon="8.9481417"><ele>421.8571428571429</ele><time>2026-04-23T13:53:12.281Z</time></trkpt><trkpt lat="45.7591417" lon="8.9480483"><ele>422.0</ele><time>2026-04-23T13:53:14.281Z</time></trkpt><trkpt lat="45.7591533" lon="8.9479333"><ele>421.99999999999994</ele><time>2026-04-23T13:53:16.281Z</time></trkpt><trkpt lat="45.7591767" lon="8.947835"><ele>422.0</ele><time>2026-04-23T13:53:18.282Z</time></trkpt><trkpt lat="45.7592133" lon="8.9477167"><ele>422.0</ele><time>2026-04-23T13:53:20.282Z</time></trkpt><trkpt lat="45.759245" lon="8.9475933"><ele>422.0</ele><time>2026-04-23T13:53:22.282Z</time></trkpt><trkpt lat="45.7592683" lon="8.9474583"><ele>421.99999999999994</ele><time>2026-04-23T13:53:24.282Z</time></trkpt><trkpt lat="45.759275" lon="8.9473333"><ele>422.0</ele><time>2026-04-23T13:53:26.284Z</time></trkpt><trkpt lat="45.759275" lon="8.94719"><ele>421.8333333333333</ele><time>2026-04-23T13:53:28.281Z</time></trkpt><trkpt lat="45.7592967" lon="8.947065"><ele>421.66666666666663</ele><time>2026-04-23T13:53:30.283Z</time></trkpt><trkpt lat="45.75931" lon="8.9469483"><ele>421.5</ele><time>2026-04-23T13:53:32.28Z</time></trkpt><trkpt lat="45.7593267" lon="8.9468367"><ele>421.33333333333337</ele><time>2026-04-23T13:53:34.283Z</time></trkpt><trkpt lat="45.7593383" lon="8.9467067"><ele>421.1666666666667</ele><time>2026-04-23T13:53:36.283Z</time></trkpt><trkpt lat="45.7593467" lon="8.9465683"><ele>421.0</ele><time>2026-04-23T13:53:38.282Z</time></trkpt><trkpt lat="45.7593633" lon="8.9464333"><ele>419.6</ele><time>2026-04-23T13:53:40.283Z</time></trkpt><trkpt lat="45.7593867" lon="8.9462967"><ele>418.20000000000005</ele><time>2026-04-23T13:53:42.283Z</time></trkpt><trkpt lat="45.7594033" lon="8.9461583"><ele>416.79999999999995</ele><time>2026-04-23T13:53:44.283Z</time></trkpt><trkpt lat="45.7594117" lon="8.9460333"><ele>415.4</ele><time>2026-04-23T13:53:46.282Z</time></trkpt><trkpt lat="45.7594217" lon="8.9458967"><ele>414.0</ele><time>2026-04-23T13:53:48.281Z</time></trkpt><trkpt lat="45.7594533" lon="8.9457817"><ele>414.0</ele><time>2026-04-23T13:53:50.281Z</time></trkpt><trkpt lat="45.75949" lon="8.9456817"><ele>414.0</ele><time>2026-04-23T13:53:52.281Z</time></trkpt><trkpt lat="45.7595267" lon="8.94557"><ele>414.0</ele><time>2026-04-23T13:53:54.282Z</time></trkpt><trkpt lat="45.7595717" lon="8.945445"><ele>414.0</ele><time>2026-04-23T13:53:56.282Z</time></trkpt><trkpt lat="45.7596417" lon="8.9453183"><ele>414.0</ele><time>2026-04-23T13:53:58.281Z</time></trkpt><trkpt lat="45.7597067" lon="8.9452283"><ele>414.0</ele><time>2026-04-23T13:54:00.282Z</time></trkpt><trkpt lat="45.7597617" lon="8.9451333"><ele>414.0</ele><time>2026-04-23T13:54:02.282Z</time></trkpt><trkpt lat="45.7597733" lon="8.9450383"><ele>414.0</ele><time>2026-04-23T13:54:04.281Z</time></trkpt><trkpt lat="45.7597167" lon="8.9449833"><ele>414.0</ele><time>2026-04-23T13:54:07.281Z</time></trkpt><trkpt lat="45.7596333" lon="8.9450333"><ele>414.0</ele><time>2026-04-23T13:54:10.282Z</time></trkpt><trkpt lat="45.759565" lon="8.94506"><ele>414.0</ele><time>2026-04-23T13:54:12.281Z</time></trkpt><trkpt lat="45.7594883" lon="8.94508"><ele>414.0</ele><time>2026-04-23T13:54:14.282Z</time></trkpt><trkpt lat="45.7594133" lon="8.9450983"><ele>414.0</ele><time>2026-04-23T13:54:16.281Z</time></trkpt><trkpt lat="45.7593367" lon="8.9451083"><ele>414.0</ele><time>2026-04-23T13:54:18.282Z</time></trkpt><trkpt lat="45.759255" lon="8.9451167"><ele>414.0</ele><time>2026-04-23T13:54:20.282Z</time></trkpt><trkpt lat="45.7591667" lon="8.9451233"><ele>414.0</ele><time>2026-04-23T13:54:22.282Z</time></trkpt><trkpt lat="45.759085" lon="8.9451383"><ele>414.0</ele><time>2026-04-23T13:54:24.283Z</time></trkpt><trkpt lat="45.759005" lon="8.94513"><ele>414.79999999999995</ele><time>2026-04-23T13:54:26.284Z</time></trkpt><trkpt lat="45.7589217" lon="8.9451467"><ele>415.59999999999997</ele><time>2026-04-23T13:54:28.283Z</time></trkpt><trkpt lat="45.7588267" lon="8.9451683"><ele>416.4</ele><time>2026-04-23T13:54:30.282Z</time></trkpt><trkpt lat="45.75872" lon="8.9452083"><ele>417.2</ele><time>2026-04-23T13:54:32.282Z</time></trkpt><trkpt lat="45.7586383" lon="8.94526"><ele>418.0</ele><time>2026-04-23T13:54:34.282Z</time></trkpt><trkpt lat="45.7585433" lon="8.9452933"><ele>418.0</ele><time>2026-04-23T13:54:36.281Z</time></trkpt><trkpt lat="45.758455" lon="8.94535"><ele>418.0</ele><time>2026-04-23T13:54:38.282Z</time></trkpt><trkpt lat="45.758335" lon="8.9453967"><ele>418.0</ele><time>2026-04-23T13:54:40.282Z</time></trkpt><trkpt lat="45.758235" lon="8.945435"><ele>418.0</ele><time>2026-04-23T13:54:42.282Z</time></trkpt><trkpt lat="45.758135" lon="8.9455"><ele>418.0</ele><time>2026-04-23T13:54:44.282Z</time></trkpt><trkpt lat="45.758075" lon="8.94554"><ele>418.0</ele><time>2026-04-23T13:54:45.28Z</time></trkpt><trkpt lat="45.75797" lon="8.94562"><ele>418.0</ele><time>2026-04-23T13:54:47.281Z</time></trkpt><trkpt lat="45.7578617" lon="8.9456383"><ele>418.0</ele><time>2026-04-23T13:54:49.281Z</time></trkpt><trkpt lat="45.7577633" lon="8.945685"><ele>418.0</ele><time>2026-04-23T13:54:51.284Z</time></trkpt><trkpt lat="45.757645" lon="8.945745"><ele>417.83333333333337</ele><time>2026-04-23T13:54:53.282Z</time></trkpt><trkpt lat="45.7575767" lon="8.9457367"><ele>417.6666666666667</ele><time>2026-04-23T13:54:54.282Z</time></trkpt><trkpt lat="45.75751" lon="8.9457217"><ele>417.5</ele><time>2026-04-23T13:54:55.282Z</time></trkpt><trkpt lat="45.7574017" lon="8.9456483"><ele>417.33333333333337</ele><time>2026-04-23T13:54:57.281Z</time></trkpt><trkpt lat="45.7573367" lon="8.9456267"><ele>417.1666666666667</ele><time>2026-04-23T13:54:58.281Z</time></trkpt><trkpt lat="45.757285" lon="8.9455633"><ele>417.0</ele><time>2026-04-23T13:54:59.282Z</time></trkpt><trkpt lat="45.7572383" lon="8.9454967"><ele>417.0</ele><time>2026-04-23T13:55:00.282Z</time></trkpt><trkpt lat="45.7571867" lon="8.945425"><ele>417.0</ele><time>2026-04-23T13:55:01.281Z</time></trkpt><trkpt lat="45.757135" lon="8.945355"><ele>417.0</ele><time>2026-04-23T13:55:02.281Z</time></trkpt><trkpt lat="45.7570717" lon="8.9452083"><ele>417.0</ele><time>2026-04-23T13:55:04.282Z</time></trkpt><trkpt lat="45.757035" lon="8.94506"><ele>417.0</ele><time>2026-04-23T13:55:06.282Z</time></trkpt><trkpt lat="45.7570217" lon="8.94489"><ele>416.40000000000003</ele><time>2026-04-23T13:55:08.283Z</time></trkpt><trkpt lat="45.7570117" lon="8.94472"><ele>415.8</ele><time>2026-04-23T13:55:10.282Z</time></trkpt><trkpt lat="45.75699" lon="8.9445317"><ele>415.2</ele><time>2026-04-23T13:55:12.281Z</time></trkpt><trkpt lat="45.7569767" lon="8.9444367"><ele>414.6</ele><time>2026-04-23T13:55:13.282Z</time></trkpt><trkpt lat="45.756965" lon="8.9442617"><ele>414.0</ele><time>2026-04-23T13:55:15.282Z</time></trkpt><trkpt lat="45.7569683" lon="8.944115"><ele>413.4</ele><time>2026-04-23T13:55:17.282Z</time></trkpt><trkpt lat="45.75697" lon="8.943945"><ele>412.79999999999995</ele><time>2026-04-23T13:55:19.283Z</time></trkpt><trkpt lat="45.7569717" lon="8.9438517"><ele>412.20000000000005</ele><time>2026-04-23T13:55:20.282Z</time></trkpt><trkpt lat="45.7569517" lon="8.9436667"><ele>411.6</ele><time>2026-04-23T13:55:22.28Z</time></trkpt><trkpt lat="45.7569283" lon="8.94357"><ele>411.0</ele><time>2026-04-23T13:55:23.283Z</time></trkpt><trkpt lat="45.7568617" lon="8.9434233"><ele>410.25</ele><time>2026-04-23T13:55:25.284Z</time></trkpt><trkpt lat="45.7567933" lon="8.9432883"><ele>409.5</ele><time>2026-04-23T13:55:27.281Z</time></trkpt><trkpt lat="45.7567217" lon="8.9431617"><ele>408.75</ele><time>2026-04-23T13:55:29.283Z</time></trkpt><trkpt lat="45.7566233" lon="8.9430517"><ele>408.0</ele><time>2026-04-23T13:55:31.282Z</time></trkpt><trkpt lat="45.7565217" lon="8.9429883"><ele>408.0</ele><time>2026-04-23T13:55:33.282Z</time></trkpt><trkpt lat="45.756415" lon="8.9429817"><ele>408.0</ele><time>2026-04-23T13:55:35.282Z</time></trkpt><trkpt lat="45.7563017" lon="8.94298"><ele>408.0</ele><time>2026-04-23T13:55:37.28Z</time></trkpt><trkpt lat="45.7562017" lon="8.942955"><ele>408.0</ele><time>2026-04-23T13:55:39.284Z</time></trkpt><trkpt lat="45.7561083" lon="8.9429233"><ele>408.0</ele><time>2026-04-23T13:55:41.281Z</time></trkpt><trkpt lat="45.756055" lon="8.9428267"><ele>408.2</ele><time>2026-04-23T13:55:43.281Z</time></trkpt><trkpt lat="45.755995" lon="8.9426767"><ele>408.4</ele><time>2026-04-23T13:55:45.282Z</time></trkpt><trkpt lat="45.7559067" lon="8.94257"><ele>408.59999999999997</ele><time>2026-04-23T13:55:47.282Z</time></trkpt><trkpt lat="45.7558383" lon="8.942535"><ele>408.79999999999995</ele><time>2026-04-23T13:55:48.282Z</time></trkpt><trkpt lat="45.7557767" lon="8.9425067"><ele>409.0</ele><time>2026-04-23T13:55:49.282Z</time></trkpt><trkpt lat="45.7556767" lon="8.9424733"><ele>408.1428571428571</ele><time>2026-04-23T13:55:51.281Z</time></trkpt><trkpt lat="45.7556133" lon="8.942465"><ele>407.28571428571433</ele><time>2026-04-23T13:55:52.282Z</time></trkpt><trkpt lat="45.7555017" lon="8.9424483"><ele>406.42857142857144</ele><time>2026-04-23T13:55:54.281Z</time></trkpt><trkpt lat="45.7554367" lon="8.9424467"><ele>405.57142857142856</ele><time>2026-04-23T13:55:55.281Z</time></trkpt><trkpt lat="45.7553717" lon="8.9424433"><ele>404.71428571428567</ele><time>2026-04-23T13:55:56.282Z</time></trkpt><trkpt lat="45.7553083" lon="8.94244"><ele>403.8571428571429</ele><time>2026-04-23T13:55:57.281Z</time></trkpt><trkpt lat="45.7552383" lon="8.9424333"><ele>403.0</ele><time>2026-04-23T13:55:58.282Z</time></trkpt><trkpt lat="45.75517" lon="8.94243"><ele>402.7142857142857</ele><time>2026-04-23T13:55:59.281Z</time></trkpt><trkpt lat="45.7551" lon="8.9424217"><ele>402.4285714285714</ele><time>2026-04-23T13:56:00.281Z</time></trkpt><trkpt lat="45.7550267" lon="8.942415"><ele>402.1428571428571</ele><time>2026-04-23T13:56:01.281Z</time></trkpt><trkpt lat="45.7549583" lon="8.94241"><ele>401.8571428571429</ele><time>2026-04-23T13:56:02.281Z</time></trkpt><trkpt lat="45.7548933" lon="8.9424067"><ele>401.57142857142856</ele><time>2026-04-23T13:56:03.28Z</time></trkpt><trkpt lat="45.7548267" lon="8.9424"><ele>401.2857142857143</ele><time>2026-04-23T13:56:04.281Z</time></trkpt><trkpt lat="45.7547617" lon="8.9424"><ele>401.0</ele><time>2026-04-23T13:56:05.281Z</time></trkpt><trkpt lat="45.7546383" lon="8.9423867"><ele>400.99999999999994</ele><time>2026-04-23T13:56:07.282Z</time></trkpt><trkpt lat="45.754575" lon="8.9423783"><ele>401.0</ele><time>2026-04-23T13:56:08.281Z</time></trkpt><trkpt lat="45.7544683" lon="8.942355"><ele>401.0</ele><time>2026-04-23T13:56:10.281Z</time></trkpt><trkpt lat="45.7544033" lon="8.9423433"><ele>401.0</ele><time>2026-04-23T13:56:11.282Z</time></trkpt><trkpt lat="45.75428" lon="8.9423"><ele>400.99999999999994</ele><time>2026-04-23T13:56:13.282Z</time></trkpt><trkpt lat="45.754215" lon="8.94228"><ele>401.0</ele><time>2026-04-23T13:56:14.282Z</time></trkpt><trkpt lat="45.7541517" lon="8.9422567"><ele>401.20000000000005</ele><time>2026-04-23T13:56:15.282Z</time></trkpt><trkpt lat="45.7540383" lon="8.9422283"><ele>401.40000000000003</ele><time>2026-04-23T13:56:17.282Z</time></trkpt><trkpt lat="45.75394" lon="8.9422467"><ele>401.6</ele><time>2026-04-23T13:56:19.283Z</time></trkpt><trkpt lat="45.7538483" lon="8.9423567"><ele>401.8</ele><time>2026-04-23T13:56:21.282Z</time></trkpt><trkpt lat="45.7537633" lon="8.9424567"><ele>402.0</ele><time>2026-04-23T13:56:23.282Z</time></trkpt><trkpt lat="45.7536733" lon="8.9425617"><ele>401.8</ele><time>2026-04-23T13:56:25.281Z</time></trkpt><trkpt lat="45.7536217" lon="8.9426167"><ele>401.6</ele><time>2026-04-23T13:56:26.283Z</time></trkpt><trkpt lat="45.7535417" lon="8.94273"><ele>401.40000000000003</ele><time>2026-04-23T13:56:28.281Z</time></trkpt><trkpt lat="45.7534967" lon="8.9427967"><ele>401.20000000000005</ele><time>2026-04-23T13:56:29.281Z</time></trkpt><trkpt lat="45.7533817" lon="8.94286"><ele>401.0</ele><time>2026-04-23T13:56:31.281Z</time></trkpt><trkpt lat="45.7532767" lon="8.9428067"><ele>401.0</ele><time>2026-04-23T13:56:33.282Z</time></trkpt><trkpt lat="45.7532167" lon="8.94275"><ele>401.0</ele><time>2026-04-23T13:56:34.282Z</time></trkpt><trkpt lat="45.7531567" lon="8.942705"><ele>401.0</ele><time>2026-04-23T13:56:35.281Z</time></trkpt><trkpt lat="45.7530967" lon="8.9426567"><ele>401.0</ele><time>2026-04-23T13:56:36.281Z</time></trkpt><trkpt lat="45.7530317" lon="8.94261"><ele>401.0</ele><time>2026-04-23T13:56:37.284Z</time></trkpt><trkpt lat="45.7529633" lon="8.94257"><ele>401.0</ele><time>2026-04-23T13:56:38.282Z</time></trkpt><trkpt lat="45.7529017" lon="8.9425433"><ele>401.0</ele><time>2026-04-23T13:56:39.282Z</time></trkpt><trkpt lat="45.7528383" lon="8.9425083"><ele>400.8571428571429</ele><time>2026-04-23T13:56:40.281Z</time></trkpt><trkpt lat="45.7527783" lon="8.9424767"><ele>400.7142857142857</ele><time>2026-04-23T13:56:41.282Z</time></trkpt><trkpt lat="45.7527183" lon="8.9424417"><ele>400.57142857142856</ele><time>2026-04-23T13:56:42.282Z</time></trkpt><trkpt lat="45.7526583" lon="8.9424017"><ele>400.42857142857144</ele><time>2026-04-23T13:56:43.282Z</time></trkpt><trkpt lat="45.752595" lon="8.9423717"><ele>400.2857142857143</ele><time>2026-04-23T13:56:44.282Z</time></trkpt><trkpt lat="45.7525317" lon="8.942345"><ele>400.14285714285717</ele><time>2026-04-23T13:56:45.281Z</time></trkpt><trkpt lat="45.7524683" lon="8.9423267"><ele>400.0</ele><time>2026-04-23T13:56:46.282Z</time></trkpt><trkpt lat="45.7523833" lon="8.9422683"><ele>399.83333333333337</ele><time>2026-04-23T13:56:48.281Z</time></trkpt><trkpt lat="45.7523067" lon="8.9422783"><ele>399.6666666666667</ele><time>2026-04-23T13:56:50.283Z</time></trkpt><trkpt lat="45.752235" lon="8.942385"><ele>399.5</ele><time>2026-04-23T13:56:52.283Z</time></trkpt><trkpt lat="45.7521917" lon="8.94246"><ele>399.33333333333337</ele><time>2026-04-23T13:56:53.282Z</time></trkpt><trkpt lat="45.7520983" lon="8.9425283"><ele>399.1666666666667</ele><time>2026-04-23T13:56:55.281Z</time></trkpt><trkpt lat="45.7520183" lon="8.9425283"><ele>399.0</ele><time>2026-04-23T13:56:57.282Z</time></trkpt><trkpt lat="45.7519267" lon="8.942505"><ele>399.1666666666667</ele><time>2026-04-23T13:56:59.282Z</time></trkpt><trkpt lat="45.7518267" lon="8.942445"><ele>399.33333333333337</ele><time>2026-04-23T13:57:01.281Z</time></trkpt><trkpt lat="45.7517483" lon="8.9424017"><ele>399.5</ele><time>2026-04-23T13:57:03.282Z</time></trkpt><trkpt lat="45.751685" lon="8.9424217"><ele>399.6666666666667</ele><time>2026-04-23T13:57:05.281Z</time></trkpt><trkpt lat="45.7516233" lon="8.94245"><ele>399.83333333333337</ele><time>2026-04-23T13:57:08.283Z</time></trkpt><trkpt lat="45.7515383" lon="8.94249"><ele>400.0</ele><time>2026-04-23T13:57:16.281Z</time></trkpt><trkpt lat="45.7514683" lon="8.9425533"><ele>400.00000000000006</ele><time>2026-04-23T13:57:19.281Z</time></trkpt><trkpt lat="45.7514117" lon="8.9425967"><ele>400.0</ele><time>2026-04-23T13:57:22.281Z</time></trkpt><trkpt lat="45.7513467" lon="8.9426583"><ele>400.0</ele><time>2026-04-23T13:57:29.281Z</time></trkpt><trkpt lat="45.7512633" lon="8.94272"><ele>400.0</ele><time>2026-04-23T13:57:32.281Z</time></trkpt><trkpt lat="45.7511967" lon="8.94277"><ele>400.00000000000006</ele><time>2026-04-23T13:57:34.282Z</time></trkpt><trkpt lat="45.751095" lon="8.9428517"><ele>400.0</ele><time>2026-04-23T13:57:36.281Z</time></trkpt><trkpt lat="45.7509983" lon="8.942915"><ele>399.50000000000006</ele><time>2026-04-23T13:57:38.281Z</time></trkpt><trkpt lat="45.7509183" lon="8.9429383"><ele>399.0</ele><time>2026-04-23T13:57:40.282Z</time></trkpt><trkpt lat="45.7508333" lon="8.9429717"><ele>398.5</ele><time>2026-04-23T13:57:42.281Z</time></trkpt><trkpt lat="45.750765" lon="8.9430283"><ele>398.0</ele><time>2026-04-23T13:57:44.281Z</time></trkpt><trkpt lat="45.7506917" lon="8.9430783"><ele>397.50000000000006</ele><time>2026-04-23T13:57:46.281Z</time></trkpt><trkpt lat="45.75062" lon="8.943125"><ele>397.0</ele><time>2026-04-23T13:57:48.282Z</time></trkpt><trkpt lat="45.7505633" lon="8.9431867"><ele>397.00000000000006</ele><time>2026-04-23T13:57:50.282Z</time></trkpt><trkpt lat="45.7505" lon="8.9432467"><ele>397.0</ele><time>2026-04-23T13:57:52.281Z</time></trkpt><trkpt lat="45.75043" lon="8.9433067"><ele>397.0</ele><time>2026-04-23T13:57:54.282Z</time></trkpt><trkpt lat="45.7503533" lon="8.9433533"><ele>397.0</ele><time>2026-04-23T13:57:56.282Z</time></trkpt><trkpt lat="45.75028" lon="8.94341"><ele>397.00000000000006</ele><time>2026-04-23T13:57:58.282Z</time></trkpt><trkpt lat="45.750195" lon="8.9434333"><ele>397.0</ele><time>2026-04-23T13:58:00.28Z</time></trkpt><trkpt lat="45.7501083" lon="8.943485"><ele>396.33333333333337</ele><time>2026-04-23T13:58:02.28Z</time></trkpt><trkpt lat="45.75004" lon="8.9435533"><ele>395.6666666666667</ele><time>2026-04-23T13:58:04.281Z</time></trkpt><trkpt lat="45.749975" lon="8.943615"><ele>395.0</ele><time>2026-04-23T13:58:06.282Z</time></trkpt><trkpt lat="45.749915" lon="8.9436833"><ele>394.33333333333337</ele><time>2026-04-23T13:58:08.282Z</time></trkpt><trkpt lat="45.7498533" lon="8.9437583"><ele>393.6666666666667</ele><time>2026-04-23T13:58:10.281Z</time></trkpt><trkpt lat="45.7497833" lon="8.9438133"><ele>393.0</ele><time>2026-04-23T13:58:12.283Z</time></trkpt><trkpt lat="45.749705" lon="8.943855"><ele>393.0</ele><time>2026-04-23T13:58:14.282Z</time></trkpt><trkpt lat="45.7496233" lon="8.943905"><ele>393.0</ele><time>2026-04-23T13:58:16.283Z</time></trkpt><trkpt lat="45.74954" lon="8.943965"><ele>393.0</ele><time>2026-04-23T13:58:18.282Z</time></trkpt><trkpt lat="45.74945" lon="8.9440267"><ele>393.0</ele><time>2026-04-23T13:58:20.283Z</time></trkpt><trkpt lat="45.7493617" lon="8.9440867"><ele>393.0</ele><time>2026-04-23T13:58:22.281Z</time></trkpt><trkpt lat="45.74927" lon="8.94415"><ele>392.59999999999997</ele><time>2026-04-23T13:58:24.283Z</time></trkpt><trkpt lat="45.7491783" lon="8.9442167"><ele>392.2</ele><time>2026-04-23T13:58:26.283Z</time></trkpt><trkpt lat="45.7490833" lon="8.944285"><ele>391.8</ele><time>2026-04-23T13:58:28.283Z</time></trkpt><trkpt lat="45.7489917" lon="8.944365"><ele>391.4</ele><time>2026-04-23T13:58:30.282Z</time></trkpt><trkpt lat="45.7488917" lon="8.9444583"><ele>391.0</ele><time>2026-04-23T13:58:32.283Z</time></trkpt><trkpt lat="45.7487833" lon="8.9445367"><ele>391.00000000000006</ele><time>2026-04-23T13:58:34.283Z</time></trkpt><trkpt lat="45.74867" lon="8.9446017"><ele>391.0</ele><time>2026-04-23T13:58:36.282Z</time></trkpt><trkpt lat="45.74861" lon="8.9446433"><ele>391.0</ele><time>2026-04-23T13:58:37.282Z</time></trkpt><trkpt lat="45.7485467" lon="8.9446867"><ele>391.0</ele><time>2026-04-23T13:58:38.282Z</time></trkpt><trkpt lat="45.748485" lon="8.9447283"><ele>391.00000000000006</ele><time>2026-04-23T13:58:39.282Z</time></trkpt><trkpt lat="45.7484217" lon="8.9447633"><ele>391.0</ele><time>2026-04-23T13:58:40.281Z</time></trkpt><trkpt lat="45.7483583" lon="8.9447983"><ele>391.00000000000006</ele><time>2026-04-23T13:58:41.281Z</time></trkpt><trkpt lat="45.7482933" lon="8.9448333"><ele>391.0</ele><time>2026-04-23T13:58:42.283Z</time></trkpt><trkpt lat="45.7482267" lon="8.9448867"><ele>391.0</ele><time>2026-04-23T13:58:44.283Z</time></trkpt><trkpt lat="45.7483117" lon="8.9449033"><ele>391.0</ele><time>2026-04-23T13:58:52.281Z</time></trkpt><trkpt lat="45.7483817" lon="8.9449217"><ele>391.00000000000006</ele><time>2026-04-23T13:58:55.281Z</time></trkpt><trkpt lat="45.7484717" lon="8.9449583"><ele>391.0</ele><time>2026-04-23T13:58:58.281Z</time></trkpt><trkpt lat="45.748565" lon="8.9449717"><ele>391.00000000000006</ele><time>2026-04-23T13:59:01.283Z</time></trkpt><trkpt lat="45.7486383" lon="8.9449883"><ele>391.0</ele><time>2026-04-23T13:59:03.281Z</time></trkpt><trkpt lat="45.7487333" lon="8.9450067"><ele>391.0</ele><time>2026-04-23T13:59:06.281Z</time></trkpt><trkpt lat="45.7488133" lon="8.94499"><ele>391.0</ele><time>2026-04-23T13:59:10.281Z</time></trkpt><trkpt lat="45.7488817" lon="8.9449967"><ele>391.00000000000006</ele><time>2026-04-23T13:59:14.282Z</time></trkpt><trkpt lat="45.7489583" lon="8.944995"><ele>391.0</ele><time>2026-04-23T13:59:17.282Z</time></trkpt><trkpt lat="45.749055" lon="8.9450033"><ele>391.00000000000006</ele><time>2026-04-23T13:59:20.282Z</time></trkpt><trkpt lat="45.7491267" lon="8.9450267"><ele>391.0</ele><time>2026-04-23T13:59:22.282Z</time></trkpt><trkpt lat="45.7492083" lon="8.9450583"><ele>391.0</ele><time>2026-04-23T13:59:24.281Z</time></trkpt><trkpt lat="45.749285" lon="8.94506"><ele>391.0</ele><time>2026-04-23T13:59:26.281Z</time></trkpt><trkpt lat="45.7493533" lon="8.9450667"><ele>391.00000000000006</ele><time>2026-04-23T13:59:28.282Z</time></trkpt><trkpt lat="45.74943" lon="8.9451217"><ele>391.0</ele><time>2026-04-23T13:59:31.282Z</time></trkpt><trkpt lat="45.749485" lon="8.9451783"><ele>391.00000000000006</ele><time>2026-04-23T13:59:33.282Z</time></trkpt><trkpt lat="45.7495417" lon="8.945245"><ele>391.0</ele><time>2026-04-23T13:59:35.282Z</time></trkpt><trkpt lat="45.7496" lon="8.94528"><ele>391.0</ele><time>2026-04-23T13:59:37.282Z</time></trkpt><trkpt lat="45.74969" lon="8.94523"><ele>391.0</ele><time>2026-04-23T13:59:40.282Z</time></trkpt><trkpt lat="45.749745" lon="8.9451783"><ele>391.00000000000006</ele><time>2026-04-23T13:59:42.282Z</time></trkpt><trkpt lat="45.7498283" lon="8.9451217"><ele>391.0</ele><time>2026-04-23T13:59:45.283Z</time></trkpt><trkpt lat="45.7498933" lon="8.9450767"><ele>391.00000000000006</ele><time>2026-04-23T13:59:48.281Z</time></trkpt><trkpt lat="45.7499717" lon="8.9450383"><ele>391.0</ele><time>2026-04-23T13:59:51.281Z</time></trkpt><trkpt lat="45.7500617" lon="8.9450467"><ele>391.0</ele><time>2026-04-23T13:59:54.282Z</time></trkpt><trkpt lat="45.7501267" lon="8.9450667"><ele>391.0</ele><time>2026-04-23T13:59:56.282Z</time></trkpt><trkpt lat="45.750195" lon="8.9451233"><ele>391.00000000000006</ele><time>2026-04-23T13:59:59.281Z</time></trkpt><trkpt lat="45.7502633" lon="8.94511"><ele>391.0</ele><time>2026-04-23T14:00:01.281Z</time></trkpt><trkpt lat="45.7503383" lon="8.9450867"><ele>391.2857142857143</ele><time>2026-04-23T14:00:03.281Z</time></trkpt><trkpt lat="45.7504183" lon="8.9450583"><ele>391.57142857142856</ele><time>2026-04-23T14:00:05.282Z</time></trkpt><trkpt lat="45.7504833" lon="8.9450717"><ele>391.8571428571429</ele><time>2026-04-23T14:00:07.283Z</time></trkpt><trkpt lat="45.7505667" lon="8.9451033"><ele>392.1428571428571</ele><time>2026-04-23T14:00:10.282Z</time></trkpt><trkpt lat="45.7506333" lon="8.9451167"><ele>392.42857142857144</ele><time>2026-04-23T14:00:12.282Z</time></trkpt><trkpt lat="45.750705" lon="8.9451317"><ele>392.7142857142857</ele><time>2026-04-23T14:00:14.282Z</time></trkpt><trkpt lat="45.7507717" lon="8.9451533"><ele>393.0</ele><time>2026-04-23T14:00:16.282Z</time></trkpt><trkpt lat="45.750855" lon="8.945165"><ele>393.0</ele><time>2026-04-23T14:00:19.281Z</time></trkpt><trkpt lat="45.7509383" lon="8.9452083"><ele>393.0</ele><time>2026-04-23T14:00:22.282Z</time></trkpt><trkpt lat="45.7510433" lon="8.945235"><ele>393.0</ele><time>2026-04-23T14:00:25.281Z</time></trkpt><trkpt lat="45.7511283" lon="8.9452267"><ele>393.0</ele><time>2026-04-23T14:00:27.28Z</time></trkpt><trkpt lat="45.75122" lon="8.9452167"><ele>393.0</ele><time>2026-04-23T14:00:30.281Z</time></trkpt><trkpt lat="45.7512867" lon="8.9452067"><ele>393.0</ele><time>2026-04-23T14:00:32.281Z</time></trkpt><trkpt lat="45.751355" lon="8.94521"><ele>394.1666666666667</ele><time>2026-04-23T14:00:34.281Z</time></trkpt><trkpt lat="45.751445" lon="8.9452133"><ele>395.33333333333337</ele><time>2026-04-23T14:00:37.281Z</time></trkpt><trkpt lat="45.751525" lon="8.945215"><ele>396.5</ele><time>2026-04-23T14:00:39.281Z</time></trkpt><trkpt lat="45.7515967" lon="8.945205"><ele>397.6666666666667</ele><time>2026-04-23T14:00:41.281Z</time></trkpt><trkpt lat="45.751685" lon="8.9451733"><ele>398.83333333333337</ele><time>2026-04-23T14:00:44.28Z</time></trkpt><trkpt lat="45.7517583" lon="8.9451267"><ele>400.0</ele><time>2026-04-23T14:00:47.28Z</time></trkpt><trkpt lat="45.75182" lon="8.945095"><ele>400.50000000000006</ele><time>2026-04-23T14:00:49.28Z</time></trkpt><trkpt lat="45.7519083" lon="8.945045"><ele>401.0</ele><time>2026-04-23T14:00:53.28Z</time></trkpt><trkpt lat="45.7519783" lon="8.9450383"><ele>401.5</ele><time>2026-04-23T14:00:55.281Z</time></trkpt><trkpt lat="45.7520833" lon="8.94505"><ele>402.0</ele><time>2026-04-23T14:01:24.281Z</time></trkpt><trkpt lat="45.7521617" lon="8.9450717"><ele>402.50000000000006</ele><time>2026-04-23T14:01:28.28Z</time></trkpt><trkpt lat="45.75223" lon="8.9450783"><ele>403.0</ele><time>2026-04-23T14:01:31.281Z</time></trkpt><trkpt lat="45.7523017" lon="8.9450667"><ele>403.00000000000006</ele><time>2026-04-23T14:01:34.28Z</time></trkpt><trkpt lat="45.75239" lon="8.9450533"><ele>403.0</ele><time>2026-04-23T14:01:37.281Z</time></trkpt><trkpt lat="45.7524533" lon="8.94506"><ele>403.0</ele><time>2026-04-23T14:01:39.28Z</time></trkpt><trkpt lat="45.7525433" lon="8.9450817"><ele>403.0</ele><time>2026-04-23T14:01:42.28Z</time></trkpt><trkpt lat="45.7526333" lon="8.945125"><ele>403.00000000000006</ele><time>2026-04-23T14:01:45.28Z</time></trkpt><trkpt lat="45.7527117" lon="8.9451967"><ele>403.0</ele><time>2026-04-23T14:01:48.28Z</time></trkpt><trkpt lat="45.7527683" lon="8.945275"><ele>403.00000000000006</ele><time>2026-04-23T14:01:50.28Z</time></trkpt><trkpt lat="45.7528117" lon="8.945365"><ele>403.0</ele><time>2026-04-23T14:01:52.28Z</time></trkpt><trkpt lat="45.75285" lon="8.9454567"><ele>403.0</ele><time>2026-04-23T14:01:54.28Z</time></trkpt><trkpt lat="45.75288" lon="8.9455433"><ele>403.0</ele><time>2026-04-23T14:01:56.28Z</time></trkpt><trkpt lat="45.7529067" lon="8.9456617"><ele>403.00000000000006</ele><time>2026-04-23T14:01:59.281Z</time></trkpt><trkpt lat="45.7529417" lon="8.9457817"><ele>403.0</ele><time>2026-04-23T14:02:02.281Z</time></trkpt><trkpt lat="45.7529983" lon="8.9458683"><ele>403.50000000000006</ele><time>2026-04-23T14:02:06.281Z</time></trkpt><trkpt lat="45.7530467" lon="8.9459583"><ele>404.0</ele><time>2026-04-23T14:02:10.281Z</time></trkpt><trkpt lat="45.7531117" lon="8.94597"><ele>404.5</ele><time>2026-04-23T14:02:13.281Z</time></trkpt><trkpt lat="45.7531783" lon="8.9459533"><ele>405.0</ele><time>2026-04-23T14:02:17.282Z</time></trkpt><trkpt lat="45.7532483" lon="8.9459267"><ele>405.50000000000006</ele><time>2026-04-23T14:02:21.281Z</time></trkpt><trkpt lat="45.7533333" lon="8.9459033"><ele>406.0</ele><time>2026-04-23T14:02:24.282Z</time></trkpt><trkpt lat="45.753415" lon="8.94589"><ele>406.00000000000006</ele><time>2026-04-23T14:02:27.281Z</time></trkpt><trkpt lat="45.7534933" lon="8.9458983"><ele>406.0</ele><time>2026-04-23T14:02:30.281Z</time></trkpt><trkpt lat="45.7535767" lon="8.9459433"><ele>406.0</ele><time>2026-04-23T14:02:33.283Z</time></trkpt><trkpt lat="45.753655" lon="8.9460017"><ele>406.0</ele><time>2026-04-23T14:02:36.282Z</time></trkpt><trkpt lat="45.753725" lon="8.94603"><ele>406.00000000000006</ele><time>2026-04-23T14:02:39.281Z</time></trkpt><trkpt lat="45.7537817" lon="8.9460817"><ele>406.0</ele><time>2026-04-23T14:02:42.283Z</time></trkpt><trkpt lat="45.7538517" lon="8.9460983"><ele>406.6666666666667</ele><time>2026-04-23T14:02:45.281Z</time></trkpt><trkpt lat="45.7539367" lon="8.9461467"><ele>407.33333333333337</ele><time>2026-04-23T14:02:49.282Z</time></trkpt><trkpt lat="45.754" lon="8.946225"><ele>408.0</ele><time>2026-04-23T14:02:52.281Z</time></trkpt><trkpt lat="45.7540467" lon="8.9463117"><ele>408.66666666666663</ele><time>2026-04-23T14:02:55.282Z</time></trkpt><trkpt lat="45.7541" lon="8.9463667"><ele>409.3333333333333</ele><time>2026-04-23T14:02:58.281Z</time></trkpt><trkpt lat="45.7541617" lon="8.946425"><ele>410.0</ele><time>2026-04-23T14:03:01.281Z</time></trkpt><trkpt lat="45.7542267" lon="8.9464883"><ele>410.0</ele><time>2026-04-23T14:03:05.281Z</time></trkpt><trkpt lat="45.754295" lon="8.9464917"><ele>410.0</ele><time>2026-04-23T14:03:10.28Z</time></trkpt><trkpt lat="45.75436" lon="8.9464917"><ele>410.0</ele><time>2026-04-23T14:03:13.281Z</time></trkpt><trkpt lat="45.754445" lon="8.9465083"><ele>410.0</ele><time>2026-04-23T14:03:17.281Z</time></trkpt><trkpt lat="45.754515" lon="8.9464933"><ele>410.0</ele><time>2026-04-23T14:03:20.281Z</time></trkpt><trkpt lat="45.75459" lon="8.946455"><ele>410.0</ele><time>2026-04-23T14:03:23.281Z</time></trkpt><trkpt lat="45.7546667" lon="8.94643"><ele>410.0</ele><time>2026-04-23T14:03:26.281Z</time></trkpt><trkpt lat="45.75475" lon="8.9464233"><ele>409.99999999999994</ele><time>2026-04-23T14:03:29.282Z</time></trkpt><trkpt lat="45.7548367" lon="8.9464167"><ele>410.0</ele><time>2026-04-23T14:03:32.281Z</time></trkpt><trkpt lat="45.7549283" lon="8.94642"><ele>410.0</ele><time>2026-04-23T14:03:35.281Z</time></trkpt><trkpt lat="45.754995" lon="8.9464133"><ele>410.0</ele><time>2026-04-23T14:03:37.281Z</time></trkpt><trkpt lat="45.7550733" lon="8.946385"><ele>409.99999999999994</ele><time>2026-04-23T14:03:40.281Z</time></trkpt><trkpt lat="45.75516" lon="8.9463467"><ele>410.0</ele><time>2026-04-23T14:03:43.283Z</time></trkpt><trkpt lat="45.75523" lon="8.9463367"><ele>410.66666666666663</ele><time>2026-04-23T14:03:46.281Z</time></trkpt><trkpt lat="45.7553067" lon="8.9463233"><ele>411.3333333333333</ele><time>2026-04-23T14:03:48.281Z</time></trkpt><trkpt lat="45.7553883" lon="8.9462983"><ele>412.0</ele><time>2026-04-23T14:03:51.281Z</time></trkpt><trkpt lat="45.7554633" lon="8.94626"><ele>412.66666666666663</ele><time>2026-04-23T14:03:54.282Z</time></trkpt><trkpt lat="45.7555483" lon="8.9462267"><ele>413.3333333333333</ele><time>2026-04-23T14:03:57.281Z</time></trkpt><trkpt lat="45.7556183" lon="8.9462"><ele>414.0</ele><time>2026-04-23T14:04:00.283Z</time></trkpt><trkpt lat="45.755685" lon="8.9461867"><ele>414.0</ele><time>2026-04-23T14:04:03.282Z</time></trkpt><trkpt lat="45.7557667" lon="8.9461417"><ele>414.0</ele><time>2026-04-23T14:04:06.286Z</time></trkpt><trkpt lat="45.755835" lon="8.9461183"><ele>414.0</ele><time>2026-04-23T14:04:08.283Z</time></trkpt><trkpt lat="45.7559217" lon="8.9461167"><ele>414.0</ele><time>2026-04-23T14:04:10.283Z</time></trkpt><trkpt lat="45.75602" lon="8.9460983"><ele>414.0</ele><time>2026-04-23T14:04:12.282Z</time></trkpt><trkpt lat="45.756085" lon="8.94609"><ele>414.0</ele><time>2026-04-23T14:04:14.283Z</time></trkpt><trkpt lat="45.7561533" lon="8.9460433"><ele>414.1666666666667</ele><time>2026-04-23T14:04:16.283Z</time></trkpt><trkpt lat="45.7562217" lon="8.94601"><ele>414.33333333333337</ele><time>2026-04-23T14:04:18.283Z</time></trkpt><trkpt lat="45.7562983" lon="8.9459967"><ele>414.5</ele><time>2026-04-23T14:04:20.283Z</time></trkpt><trkpt lat="45.75638" lon="8.9459867"><ele>414.6666666666667</ele><time>2026-04-23T14:04:22.283Z</time></trkpt><trkpt lat="45.7564433" lon="8.9459833"><ele>414.83333333333337</ele><time>2026-04-23T14:04:24.283Z</time></trkpt><trkpt lat="45.7565167" lon="8.9459667"><ele>415.0</ele><time>2026-04-23T14:04:26.283Z</time></trkpt><trkpt lat="45.7566183" lon="8.9459183"><ele>415.00000000000006</ele><time>2026-04-23T14:04:28.282Z</time></trkpt><trkpt lat="45.75668" lon="8.9458983"><ele>415.0</ele><time>2026-04-23T14:04:30.283Z</time></trkpt><trkpt lat="45.75675" lon="8.9458933"><ele>415.0</ele><time>2026-04-23T14:04:32.283Z</time></trkpt><trkpt lat="45.7568217" lon="8.9458817"><ele>415.0</ele><time>2026-04-23T14:04:34.281Z</time></trkpt><trkpt lat="45.7569083" lon="8.9458717"><ele>415.00000000000006</ele><time>2026-04-23T14:04:36.282Z</time></trkpt><trkpt lat="45.75701" lon="8.9458617"><ele>415.0</ele><time>2026-04-23T14:04:39.283Z</time></trkpt><trkpt lat="45.7570917" lon="8.9458333"><ele>415.33333333333337</ele><time>2026-04-23T14:04:41.283Z</time></trkpt><trkpt lat="45.757165" lon="8.94581"><ele>415.6666666666667</ele><time>2026-04-23T14:04:43.283Z</time></trkpt><trkpt lat="45.7572583" lon="8.94577"><ele>416.0</ele><time>2026-04-23T14:04:46.283Z</time></trkpt><trkpt lat="45.757295" lon="8.94569"><ele>416.33333333333337</ele><time>2026-04-23T14:04:49.283Z</time></trkpt><trkpt lat="45.7572183" lon="8.945635"><ele>416.6666666666667</ele><time>2026-04-23T14:06:23.281Z</time></trkpt><trkpt lat="45.757145" lon="8.9455867"><ele>417.0</ele><time>2026-04-23T14:06:36.281Z</time></trkpt><trkpt lat="45.757085" lon="8.9455133"><ele>417.0</ele><time>2026-04-23T14:06:39.28Z</time></trkpt><trkpt lat="45.7570283" lon="8.9454217"><ele>417.0</ele><time>2026-04-23T14:06:41.282Z</time></trkpt><trkpt lat="45.7569767" lon="8.9453133"><ele>417.0</ele><time>2026-04-23T14:06:43.28Z</time></trkpt><trkpt lat="45.7569483" lon="8.9452"><ele>417.0</ele><time>2026-04-23T14:06:45.28Z</time></trkpt><trkpt lat="45.756955" lon="8.9450767"><ele>417.0</ele><time>2026-04-23T14:06:47.28Z</time></trkpt><trkpt lat="45.756945" lon="8.9449367"><ele>417.0</ele><time>2026-04-23T14:06:49.281Z</time></trkpt><trkpt lat="45.7569417" lon="8.9447883"><ele>416.40000000000003</ele><time>2026-04-23T14:06:51.28Z</time></trkpt><trkpt lat="45.7569517" lon="8.9446433"><ele>415.8</ele><time>2026-04-23T14:06:53.28Z</time></trkpt><trkpt lat="45.7569567" lon="8.9444933"><ele>415.2</ele><time>2026-04-23T14:06:55.28Z</time></trkpt><trkpt lat="45.7569583" lon="8.9443483"><ele>414.6</ele><time>2026-04-23T14:06:57.28Z</time></trkpt><trkpt lat="45.7569567" lon="8.944185"><ele>414.0</ele><time>2026-04-23T14:06:59.283Z</time></trkpt><trkpt lat="45.7569633" lon="8.9440383"><ele>413.5</ele><time>2026-04-23T14:07:01.282Z</time></trkpt><trkpt lat="45.7569567" lon="8.9438917"><ele>413.0</ele><time>2026-04-23T14:07:03.281Z</time></trkpt><trkpt lat="45.7569467" lon="8.94374"><ele>412.5</ele><time>2026-04-23T14:07:05.28Z</time></trkpt><trkpt lat="45.7569217" lon="8.943655"><ele>412.0</ele><time>2026-04-23T14:07:06.28Z</time></trkpt><trkpt lat="45.7568817" lon="8.9435417"><ele>411.5</ele><time>2026-04-23T14:07:08.281Z</time></trkpt><trkpt lat="45.7568467" lon="8.94345"><ele>411.0</ele><time>2026-04-23T14:07:10.281Z</time></trkpt><trkpt lat="45.7567917" lon="8.9433567"><ele>410.5</ele><time>2026-04-23T14:07:12.28Z</time></trkpt><trkpt lat="45.75674" lon="8.9432517"><ele>410.0</ele><time>2026-04-23T14:07:14.281Z</time></trkpt><trkpt lat="45.756685" lon="8.9431617"><ele>409.5</ele><time>2026-04-23T14:07:16.281Z</time></trkpt><trkpt lat="45.7566317" lon="8.9430867"><ele>409.0</ele><time>2026-04-23T14:07:19.28Z</time></trkpt><trkpt lat="45.7565417" lon="8.9430017"><ele>408.5</ele><time>2026-04-23T14:07:42.283Z</time></trkpt><trkpt lat="45.75648" lon="8.9429667"><ele>408.0</ele><time>2026-04-23T14:07:44.282Z</time></trkpt><trkpt lat="45.7563833" lon="8.9429283"><ele>408.0</ele><time>2026-04-23T14:07:46.281Z</time></trkpt><trkpt lat="45.756285" lon="8.94292"><ele>408.0</ele><time>2026-04-23T14:07:48.282Z</time></trkpt><trkpt lat="45.7561883" lon="8.942905"><ele>408.0</ele><time>2026-04-23T14:07:50.282Z</time></trkpt><trkpt lat="45.7560917" lon="8.9428417"><ele>408.0</ele><time>2026-04-23T14:07:52.281Z</time></trkpt><trkpt lat="45.7560233" lon="8.9427283"><ele>408.0</ele><time>2026-04-23T14:07:54.281Z</time></trkpt><trkpt lat="45.7559617" lon="8.9426117"><ele>406.75</ele><time>2026-04-23T14:07:56.281Z</time></trkpt><trkpt lat="45.7558683" lon="8.942535"><ele>405.5</ele><time>2026-04-23T14:07:58.281Z</time></trkpt><trkpt lat="45.7557467" lon="8.9425"><ele>404.25</ele><time>2026-04-23T14:08:00.282Z</time></trkpt><trkpt lat="45.7556267" lon="8.942485"><ele>403.0</ele><time>2026-04-23T14:08:02.282Z</time></trkpt><trkpt lat="45.7555067" lon="8.942465"><ele>403.0</ele><time>2026-04-23T14:08:04.282Z</time></trkpt><trkpt lat="45.755415" lon="8.942445"><ele>403.0</ele><time>2026-04-23T14:08:06.282Z</time></trkpt><trkpt lat="45.755305" lon="8.9424333"><ele>403.0</ele><time>2026-04-23T14:08:08.283Z</time></trkpt><trkpt lat="45.7551767" lon="8.9424317"><ele>403.0</ele><time>2026-04-23T14:08:10.281Z</time></trkpt><trkpt lat="45.75511" lon="8.9424267"><ele>403.0</ele><time>2026-04-23T14:08:11.283Z</time></trkpt><trkpt lat="45.7550433" lon="8.9424267"><ele>402.7142857142857</ele><time>2026-04-23T14:08:12.282Z</time></trkpt><trkpt lat="45.754975" lon="8.9424233"><ele>402.4285714285714</ele><time>2026-04-23T14:08:13.282Z</time></trkpt><trkpt lat="45.7549067" lon="8.94242"><ele>402.1428571428571</ele><time>2026-04-23T14:08:14.283Z</time></trkpt><trkpt lat="45.7548417" lon="8.9424133"><ele>401.8571428571429</ele><time>2026-04-23T14:08:15.284Z</time></trkpt><trkpt lat="45.7547733" lon="8.9424067"><ele>401.57142857142856</ele><time>2026-04-23T14:08:16.282Z</time></trkpt><trkpt lat="45.75471" lon="8.9423983"><ele>401.2857142857143</ele><time>2026-04-23T14:08:17.282Z</time></trkpt><trkpt lat="45.7546467" lon="8.9423933"><ele>401.0</ele><time>2026-04-23T14:08:18.282Z</time></trkpt><trkpt lat="45.75458" lon="8.94239"><ele>400.99999999999994</ele><time>2026-04-23T14:08:19.283Z</time></trkpt><trkpt lat="45.7545117" lon="8.94238"><ele>401.0</ele><time>2026-04-23T14:08:20.283Z</time></trkpt><trkpt lat="45.754445" lon="8.9423633"><ele>401.0</ele><time>2026-04-23T14:08:21.282Z</time></trkpt><trkpt lat="45.75438" lon="8.9423517"><ele>401.0</ele><time>2026-04-23T14:08:22.282Z</time></trkpt><trkpt lat="45.7542633" lon="8.9423133"><ele>400.99999999999994</ele><time>2026-04-23T14:08:24.282Z</time></trkpt><trkpt lat="45.7541517" lon="8.942275"><ele>401.0</ele><time>2026-04-23T14:08:26.282Z</time></trkpt><trkpt lat="45.7540483" lon="8.9422317"><ele>401.20000000000005</ele><time>2026-04-23T14:08:28.283Z</time></trkpt><trkpt lat="45.7539717" lon="8.9422383"><ele>401.40000000000003</ele><time>2026-04-23T14:08:30.283Z</time></trkpt><trkpt lat="45.7538967" lon="8.94231"><ele>401.6</ele><time>2026-04-23T14:08:32.282Z</time></trkpt><trkpt lat="45.75381" lon="8.9423817"><ele>401.8</ele><time>2026-04-23T14:08:34.282Z</time></trkpt><trkpt lat="45.75373" lon="8.9424683"><ele>402.0</ele><time>2026-04-23T14:08:36.282Z</time></trkpt><trkpt lat="45.7536567" lon="8.9425517"><ele>401.8</ele><time>2026-04-23T14:08:38.284Z</time></trkpt><trkpt lat="45.7535917" lon="8.9426283"><ele>401.6</ele><time>2026-04-23T14:08:40.282Z</time></trkpt><trkpt lat="45.7535083" lon="8.9427217"><ele>401.40000000000003</ele><time>2026-04-23T14:08:42.284Z</time></trkpt><trkpt lat="45.753405" lon="8.94274"><ele>401.20000000000005</ele><time>2026-04-23T14:08:44.284Z</time></trkpt><trkpt lat="45.75329" lon="8.9426933"><ele>401.0</ele><time>2026-04-23T14:08:46.283Z</time></trkpt><trkpt lat="45.7531717" lon="8.9426617"><ele>401.0</ele><time>2026-04-23T14:08:48.282Z</time></trkpt><trkpt lat="45.7530667" lon="8.9426317"><ele>401.0</ele><time>2026-04-23T14:08:50.284Z</time></trkpt><trkpt lat="45.75296" lon="8.9425933"><ele>401.0</ele><time>2026-04-23T14:08:52.283Z</time></trkpt><trkpt lat="45.7528583" lon="8.9425517"><ele>401.0</ele><time>2026-04-23T14:08:54.284Z</time></trkpt><trkpt lat="45.752765" lon="8.9424883"><ele>401.0</ele><time>2026-04-23T14:08:56.284Z</time></trkpt><trkpt lat="45.7526683" lon="8.9424167"><ele>400.6</ele><time>2026-04-23T14:08:58.282Z</time></trkpt><trkpt lat="45.752585" lon="8.9423517"><ele>400.20000000000005</ele><time>2026-04-23T14:09:00.281Z</time></trkpt><trkpt lat="45.7524967" lon="8.9423067"><ele>399.79999999999995</ele><time>2026-04-23T14:09:02.283Z</time></trkpt><trkpt lat="45.7524083" lon="8.9422567"><ele>399.4</ele><time>2026-04-23T14:09:04.283Z</time></trkpt><trkpt lat="45.752315" lon="8.9422767"><ele>399.0</ele><time>2026-04-23T14:09:06.283Z</time></trkpt><trkpt lat="45.7522367" lon="8.94241"><ele>399.0</ele><time>2026-04-23T14:09:08.283Z</time></trkpt><trkpt lat="45.75218" lon="8.9424633"><ele>399.0</ele><time>2026-04-23T14:09:09.282Z</time></trkpt><trkpt lat="45.7520817" lon="8.942525"><ele>399.0</ele><time>2026-04-23T14:09:11.282Z</time></trkpt><trkpt lat="45.75199" lon="8.942535"><ele>399.0</ele><time>2026-04-23T14:09:13.282Z</time></trkpt><trkpt lat="45.751915" lon="8.9425133"><ele>399.0</ele><time>2026-04-23T14:09:15.282Z</time></trkpt><trkpt lat="45.7518517" lon="8.942475"><ele>399.0</ele><time>2026-04-23T14:09:17.283Z</time></trkpt><trkpt lat="45.7517967" lon="8.9424167"><ele>399.1666666666667</ele><time>2026-04-23T14:09:19.283Z</time></trkpt><trkpt lat="45.75173" lon="8.9423717"><ele>399.33333333333337</ele><time>2026-04-23T14:09:21.282Z</time></trkpt><trkpt lat="45.751645" lon="8.942395"><ele>399.5</ele><time>2026-04-23T14:09:24.282Z</time></trkpt><trkpt lat="45.75159" lon="8.94244"><ele>399.6666666666667</ele><time>2026-04-23T14:09:27.283Z</time></trkpt><trkpt lat="45.7515017" lon="8.9424783"><ele>399.83333333333337</ele><time>2026-04-23T14:09:36.284Z</time></trkpt><trkpt lat="45.751445" lon="8.9425483"><ele>400.0</ele><time>2026-04-23T14:09:43.282Z</time></trkpt><trkpt lat="45.751395" lon="8.94261"><ele>400.00000000000006</ele><time>2026-04-23T14:09:48.282Z</time></trkpt><trkpt lat="45.7513467" lon="8.942675"><ele>400.0</ele><time>2026-04-23T14:10:00.282Z</time></trkpt><trkpt lat="45.7512733" lon="8.9427233"><ele>400.0</ele><time>2026-04-23T14:10:04.281Z</time></trkpt><trkpt lat="45.7512" lon="8.9427933"><ele>400.0</ele><time>2026-04-23T14:10:07.282Z</time></trkpt><trkpt lat="45.7511067" lon="8.942865"><ele>400.00000000000006</ele><time>2026-04-23T14:10:09.281Z</time></trkpt><trkpt lat="45.75102" lon="8.9429167"><ele>400.0</ele><time>2026-04-23T14:10:11.281Z</time></trkpt><trkpt lat="45.75094" lon="8.9429283"><ele>399.50000000000006</ele><time>2026-04-23T14:10:13.281Z</time></trkpt><trkpt lat="45.7508567" lon="8.942955"><ele>399.0</ele><time>2026-04-23T14:10:15.28Z</time></trkpt><trkpt lat="45.7507833" lon="8.943005"><ele>398.5</ele><time>2026-04-23T14:10:17.281Z</time></trkpt><trkpt lat="45.7507133" lon="8.94307"><ele>398.0</ele><time>2026-04-23T14:10:19.281Z</time></trkpt><trkpt lat="45.750645" lon="8.943135"><ele>397.50000000000006</ele><time>2026-04-23T14:10:21.281Z</time></trkpt><trkpt lat="45.7505717" lon="8.943195"><ele>397.0</ele><time>2026-04-23T14:10:23.282Z</time></trkpt><trkpt lat="45.750495" lon="8.943255"><ele>397.0</ele><time>2026-04-23T14:10:25.281Z</time></trkpt><trkpt lat="45.75042" lon="8.9433233"><ele>397.0</ele><time>2026-04-23T14:10:27.282Z</time></trkpt><trkpt lat="45.7503383" lon="8.943375"><ele>397.0</ele><time>2026-04-23T14:10:29.283Z</time></trkpt><trkpt lat="45.75025" lon="8.943425"><ele>397.0</ele><time>2026-04-23T14:10:31.282Z</time></trkpt><trkpt lat="45.7501617" lon="8.943475"><ele>397.0</ele><time>2026-04-23T14:10:33.281Z</time></trkpt><trkpt lat="45.75008" lon="8.94353"><ele>396.33333333333337</ele><time>2026-04-23T14:10:35.283Z</time></trkpt><trkpt lat="45.7500133" lon="8.9436017"><ele>395.6666666666667</ele><time>2026-04-23T14:10:37.282Z</time></trkpt><trkpt lat="45.7499433" lon="8.9436667"><ele>395.0</ele><time>2026-04-23T14:10:39.283Z</time></trkpt><trkpt lat="45.749885" lon="8.9437467"><ele>394.33333333333337</ele><time>2026-04-23T14:10:41.282Z</time></trkpt><trkpt lat="45.7498183" lon="8.9438167"><ele>393.6666666666667</ele><time>2026-04-23T14:10:43.282Z</time></trkpt><trkpt lat="45.74973" lon="8.94386"><ele>393.0</ele><time>2026-04-23T14:10:45.281Z</time></trkpt><trkpt lat="45.7496383" lon="8.9438983"><ele>393.0</ele><time>2026-04-23T14:10:47.282Z</time></trkpt><trkpt lat="45.7495467" lon="8.943955"><ele>393.0</ele><time>2026-04-23T14:10:49.283Z</time></trkpt><trkpt lat="45.7494567" lon="8.944025"><ele>393.0</ele><time>2026-04-23T14:10:51.284Z</time></trkpt><trkpt lat="45.749365" lon="8.9440883"><ele>393.0</ele><time>2026-04-23T14:10:53.282Z</time></trkpt><trkpt lat="45.7492717" lon="8.94415"><ele>393.0</ele><time>2026-04-23T14:10:55.282Z</time></trkpt><trkpt lat="45.7491833" lon="8.944195"><ele>392.59999999999997</ele><time>2026-04-23T14:10:57.283Z</time></trkpt><trkpt lat="45.7490917" lon="8.9442567"><ele>392.2</ele><time>2026-04-23T14:10:59.283Z</time></trkpt><trkpt lat="45.749005" lon="8.9443233"><ele>391.8</ele><time>2026-04-23T14:11:01.282Z</time></trkpt><trkpt lat="45.7489067" lon="8.9444117"><ele>391.4</ele><time>2026-04-23T14:11:03.283Z</time></trkpt><trkpt lat="45.7488017" lon="8.9445067"><ele>391.0</ele><time>2026-04-23T14:11:05.285Z</time></trkpt><trkpt lat="45.7487433" lon="8.9445417"><ele>391.00000000000006</ele><time>2026-04-23T14:11:06.281Z</time></trkpt><trkpt lat="45.74863" lon="8.944615"><ele>391.0</ele><time>2026-04-23T14:11:08.284Z</time></trkpt><trkpt lat="45.7485683" lon="8.9446533"><ele>391.0</ele><time>2026-04-23T14:11:09.283Z</time></trkpt><trkpt lat="45.748505" lon="8.9447"><ele>391.0</ele><time>2026-04-23T14:11:10.282Z</time></trkpt><trkpt lat="45.7484367" lon="8.9447367"><ele>391.00000000000006</ele><time>2026-04-23T14:11:11.282Z</time></trkpt><trkpt lat="45.7483733" lon="8.9447717"><ele>391.0</ele><time>2026-04-23T14:11:12.281Z</time></trkpt><trkpt lat="45.74827" lon="8.944825"><ele>391.00000000000006</ele><time>2026-04-23T14:11:14.283Z</time></trkpt><trkpt lat="45.7481967" lon="8.9448833"><ele>391.0</ele><time>2026-04-23T14:11:17.282Z</time></trkpt><trkpt lat="45.7482683" lon="8.9448967"><ele>391.0</ele><time>2026-04-23T14:11:21.283Z</time></trkpt><trkpt lat="45.7483533" lon="8.9449267"><ele>391.0</ele><time>2026-04-23T14:11:24.282Z</time></trkpt><trkpt lat="45.7484467" lon="8.9449417"><ele>391.00000000000006</ele><time>2026-04-23T14:11:27.282Z</time></trkpt><trkpt lat="45.748515" lon="8.9449433"><ele>391.0</ele><time>2026-04-23T14:11:29.282Z</time></trkpt><trkpt lat="45.7486017" lon="8.944955"><ele>390.99999999999994</ele><time>2026-04-23T14:11:32.283Z</time></trkpt><trkpt lat="45.74867" lon="8.9449483"><ele>391.0</ele><time>2026-04-23T14:11:34.282Z</time></trkpt><trkpt lat="45.7487583" lon="8.9449533"><ele>391.0</ele><time>2026-04-23T14:11:37.284Z</time></trkpt><trkpt lat="45.7488317" lon="8.9449767"><ele>391.0</ele><time>2026-04-23T14:11:40.283Z</time></trkpt><trkpt lat="45.7488967" lon="8.944985"><ele>391.0</ele><time>2026-04-23T14:11:43.283Z</time></trkpt><trkpt lat="45.7489667" lon="8.9449817"><ele>390.99999999999994</ele><time>2026-04-23T14:11:46.283Z</time></trkpt><trkpt lat="45.7490433" lon="8.9449867"><ele>391.0</ele><time>2026-04-23T14:11:49.284Z</time></trkpt><trkpt lat="45.74913" lon="8.9450217"><ele>391.00000000000006</ele><time>2026-04-23T14:11:52.284Z</time></trkpt><trkpt lat="45.7492017" lon="8.94504"><ele>391.0</ele><time>2026-04-23T14:11:55.285Z</time></trkpt><trkpt lat="45.7492783" lon="8.94503"><ele>391.0</ele><time>2026-04-23T14:11:57.283Z</time></trkpt><trkpt lat="45.7493483" lon="8.9450617"><ele>391.0</ele><time>2026-04-23T14:12:00.284Z</time></trkpt><trkpt lat="45.7494167" lon="8.94512"><ele>391.00000000000006</ele><time>2026-04-23T14:12:02.284Z</time></trkpt><trkpt lat="45.7494767" lon="8.9451767"><ele>391.0</ele><time>2026-04-23T14:12:04.283Z</time></trkpt><trkpt lat="45.749545" lon="8.9452267"><ele>390.99999999999994</ele><time>2026-04-23T14:12:06.284Z</time></trkpt><trkpt lat="45.7496167" lon="8.9452533"><ele>391.0</ele><time>2026-04-23T14:12:08.285Z</time></trkpt><trkpt lat="45.74968" lon="8.9452517"><ele>391.0</ele><time>2026-04-23T14:12:11.284Z</time></trkpt><trkpt lat="45.74974" lon="8.945185"><ele>391.0</ele><time>2026-04-23T14:12:14.285Z</time></trkpt><trkpt lat="45.7497967" lon="8.9451383"><ele>391.0</ele><time>2026-04-23T14:12:18.284Z</time></trkpt><trkpt lat="45.7498633" lon="8.9450983"><ele>390.99999999999994</ele><time>2026-04-23T14:12:21.284Z</time></trkpt><trkpt lat="45.7499267" lon="8.9450467"><ele>391.0</ele><time>2026-04-23T14:12:25.282Z</time></trkpt><trkpt lat="45.7499917" lon="8.945005"><ele>391.0</ele><time>2026-04-23T14:14:15.28Z</time></trkpt><trkpt lat="45.7500717" lon="8.945055"><ele>391.0</ele><time>2026-04-23T14:14:22.28Z</time></trkpt><trkpt lat="45.7501483" lon="8.9451183"><ele>391.0</ele><time>2026-04-23T14:14:26.281Z</time></trkpt><trkpt lat="45.7502317" lon="8.945105"><ele>391.0</ele><time>2026-04-23T14:14:29.28Z</time></trkpt><trkpt lat="45.750345" lon="8.9450833"><ele>391.0</ele><time>2026-04-23T14:14:32.28Z</time></trkpt><trkpt lat="45.75044" lon="8.9450733"><ele>391.33333333333337</ele><time>2026-04-23T14:14:34.28Z</time></trkpt><trkpt lat="45.75052" lon="8.9450983"><ele>391.6666666666667</ele><time>2026-04-23T14:14:36.28Z</time></trkpt><trkpt lat="45.7506117" lon="8.94513"><ele>392.0</ele><time>2026-04-23T14:14:39.281Z</time></trkpt><trkpt lat="45.7506967" lon="8.945135"><ele>392.33333333333337</ele><time>2026-04-23T14:14:41.28Z</time></trkpt><trkpt lat="45.7507633" lon="8.945145"><ele>392.6666666666667</ele><time>2026-04-23T14:14:43.281Z</time></trkpt><trkpt lat="45.750855" lon="8.9451583"><ele>393.0</ele><time>2026-04-23T14:14:46.28Z</time></trkpt><trkpt lat="45.750945" lon="8.9451917"><ele>393.0</ele><time>2026-04-23T14:14:49.28Z</time></trkpt><trkpt lat="45.7510033" lon="8.9452267"><ele>393.0</ele><time>2026-04-23T14:14:51.28Z</time></trkpt><trkpt lat="45.7510717" lon="8.94523"><ele>393.0</ele><time>2026-04-23T14:14:53.281Z</time></trkpt><trkpt lat="45.7511483" lon="8.9452383"><ele>393.0</ele><time>2026-04-23T14:14:55.28Z</time></trkpt><trkpt lat="45.7512417" lon="8.94524"><ele>393.0</ele><time>2026-04-23T14:14:58.281Z</time></trkpt><trkpt lat="45.751325" lon="8.94524"><ele>393.0</ele><time>2026-04-23T14:15:01.28Z</time></trkpt><trkpt lat="45.7514033" lon="8.9452467"><ele>394.1666666666667</ele><time>2026-04-23T14:15:03.28Z</time></trkpt><trkpt lat="45.7514783" lon="8.9452367"><ele>395.33333333333337</ele><time>2026-04-23T14:15:05.281Z</time></trkpt><trkpt lat="45.7515633" lon="8.9452033"><ele>396.5</ele><time>2026-04-23T14:15:07.28Z</time></trkpt><trkpt lat="45.7516333" lon="8.94516"><ele>397.6666666666667</ele><time>2026-04-23T14:15:09.28Z</time></trkpt><trkpt lat="45.7517067" lon="8.9451383"><ele>398.83333333333337</ele><time>2026-04-23T14:15:11.28Z</time></trkpt><trkpt lat="45.7517883" lon="8.9451167"><ele>400.0</ele><time>2026-04-23T14:15:13.281Z</time></trkpt><trkpt lat="45.7518617" lon="8.9450933"><ele>400.50000000000006</ele><time>2026-04-23T14:15:15.281Z</time></trkpt><trkpt lat="45.7519317" lon="8.9450783"><ele>401.0</ele><time>2026-04-23T14:15:17.28Z</time></trkpt><trkpt lat="45.752005" lon="8.945055"><ele>401.5</ele><time>2026-04-23T14:15:19.28Z</time></trkpt><trkpt lat="45.7520817" lon="8.9450567"><ele>402.0</ele><time>2026-04-23T14:15:21.28Z</time></trkpt><trkpt lat="45.7521717" lon="8.9450683"><ele>402.50000000000006</ele><time>2026-04-23T14:15:23.28Z</time></trkpt><trkpt lat="45.7522483" lon="8.94507"><ele>403.0</ele><time>2026-04-23T14:15:25.281Z</time></trkpt><trkpt lat="45.7523267" lon="8.94507"><ele>403.00000000000006</ele><time>2026-04-23T14:15:27.281Z</time></trkpt><trkpt lat="45.7523983" lon="8.945055"><ele>403.0</ele><time>2026-04-23T14:15:29.281Z</time></trkpt><trkpt lat="45.7524683" lon="8.9450583"><ele>403.0</ele><time>2026-04-23T14:15:31.281Z</time></trkpt><trkpt lat="45.75254" lon="8.9450833"><ele>403.0</ele><time>2026-04-23T14:15:33.281Z</time></trkpt><trkpt lat="45.752615" lon="8.9451233"><ele>403.00000000000006</ele><time>2026-04-23T14:15:35.282Z</time></trkpt><trkpt lat="45.75268" lon="8.945165"><ele>403.0</ele><time>2026-04-23T14:15:37.28Z</time></trkpt><trkpt lat="45.7527467" lon="8.945245"><ele>403.00000000000006</ele><time>2026-04-23T14:15:39.281Z</time></trkpt><trkpt lat="45.75279" lon="8.9453283"><ele>403.0</ele><time>2026-04-23T14:15:41.281Z</time></trkpt><trkpt lat="45.7528317" lon="8.9454333"><ele>403.0</ele><time>2026-04-23T14:15:43.282Z</time></trkpt><trkpt lat="45.752865" lon="8.94554"><ele>403.0</ele><time>2026-04-23T14:15:45.281Z</time></trkpt><trkpt lat="45.75288" lon="8.9456367"><ele>403.00000000000006</ele><time>2026-04-23T14:15:47.282Z</time></trkpt><trkpt lat="45.752905" lon="8.9457517"><ele>403.0</ele><time>2026-04-23T14:15:50.283Z</time></trkpt><trkpt lat="45.752965" lon="8.9458167"><ele>403.42857142857144</ele><time>2026-04-23T14:15:53.282Z</time></trkpt><trkpt lat="45.7530067" lon="8.9458933"><ele>403.85714285714283</ele><time>2026-04-23T14:15:57.281Z</time></trkpt><trkpt lat="45.7530733" lon="8.94593"><ele>404.2857142857143</ele><time>2026-04-23T14:16:01.282Z</time></trkpt><trkpt lat="45.753155" lon="8.9459233"><ele>404.7142857142857</ele><time>2026-04-23T14:16:05.282Z</time></trkpt><trkpt lat="45.7532283" lon="8.9459117"><ele>405.1428571428571</ele><time>2026-04-23T14:16:08.284Z</time></trkpt><trkpt lat="45.75331" lon="8.94591"><ele>405.57142857142856</ele><time>2026-04-23T14:16:11.282Z</time></trkpt><trkpt lat="45.753375" lon="8.945915"><ele>406.0</ele><time>2026-04-23T14:16:13.282Z</time></trkpt><trkpt lat="45.7534467" lon="8.945905"><ele>406.00000000000006</ele><time>2026-04-23T14:16:16.282Z</time></trkpt><trkpt lat="45.75352" lon="8.9459367"><ele>406.0</ele><time>2026-04-23T14:16:20.281Z</time></trkpt><trkpt lat="45.7535833" lon="8.9460033"><ele>406.0</ele><time>2026-04-23T14:16:23.281Z</time></trkpt><trkpt lat="45.753655" lon="8.9460433"><ele>406.0</ele><time>2026-04-23T14:16:26.281Z</time></trkpt><trkpt lat="45.7537217" lon="8.94609"><ele>406.00000000000006</ele><time>2026-04-23T14:16:29.282Z</time></trkpt><trkpt lat="45.753795" lon="8.94613"><ele>406.0</ele><time>2026-04-23T14:16:32.281Z</time></trkpt><trkpt lat="45.7538767" lon="8.9461933"><ele>406.6666666666667</ele><time>2026-04-23T14:16:35.28Z</time></trkpt><trkpt lat="45.7539317" lon="8.94626"><ele>407.33333333333337</ele><time>2026-04-23T14:16:37.281Z</time></trkpt><trkpt lat="45.7539867" lon="8.9463483"><ele>408.0</ele><time>2026-04-23T14:16:40.282Z</time></trkpt><trkpt lat="45.7540417" lon="8.9464183"><ele>408.66666666666663</ele><time>2026-04-23T14:16:43.283Z</time></trkpt><trkpt lat="45.7541083" lon="8.9464767"><ele>409.3333333333333</ele><time>2026-04-23T14:16:47.281Z</time></trkpt><trkpt lat="45.754175" lon="8.9464933"><ele>410.0</ele><time>2026-04-23T14:16:51.281Z</time></trkpt><trkpt lat="45.7542633" lon="8.9464783"><ele>409.99999999999994</ele><time>2026-04-23T14:16:55.28Z</time></trkpt><trkpt lat="45.75433" lon="8.9464933"><ele>410.0</ele><time>2026-04-23T14:16:58.281Z</time></trkpt><trkpt lat="45.7543967" lon="8.94647"><ele>410.0</ele><time>2026-04-23T14:17:01.28Z</time></trkpt><trkpt lat="45.7545017" lon="8.9464667"><ele>410.0</ele><time>2026-04-23T14:17:03.282Z</time></trkpt><trkpt lat="45.7545717" lon="8.946465"><ele>409.99999999999994</ele><time>2026-04-23T14:17:05.281Z</time></trkpt><trkpt lat="45.7546383" lon="8.9464467"><ele>410.0</ele><time>2026-04-23T14:17:07.282Z</time></trkpt><trkpt lat="45.7547283" lon="8.946435"><ele>409.99999999999994</ele><time>2026-04-23T14:17:10.281Z</time></trkpt><trkpt lat="45.7548117" lon="8.946395"><ele>410.0</ele><time>2026-04-23T14:17:13.283Z</time></trkpt><trkpt lat="45.7549033" lon="8.9464"><ele>410.0</ele><time>2026-04-23T14:17:16.282Z</time></trkpt><trkpt lat="45.7549833" lon="8.94638"><ele>410.0</ele><time>2026-04-23T14:17:19.282Z</time></trkpt><trkpt lat="45.7550733" lon="8.94636"><ele>409.99999999999994</ele><time>2026-04-23T14:17:22.281Z</time></trkpt><trkpt lat="45.7551617" lon="8.946335"><ele>410.0</ele><time>2026-04-23T14:17:25.283Z</time></trkpt><trkpt lat="45.75523" lon="8.946325"><ele>410.66666666666663</ele><time>2026-04-23T14:17:27.282Z</time></trkpt><trkpt lat="45.7553067" lon="8.9463333"><ele>411.3333333333333</ele><time>2026-04-23T14:17:29.282Z</time></trkpt><trkpt lat="45.7553767" lon="8.946335"><ele>412.0</ele><time>2026-04-23T14:17:31.284Z</time></trkpt><trkpt lat="45.755465" lon="8.9463067"><ele>412.66666666666663</ele><time>2026-04-23T14:17:34.283Z</time></trkpt><trkpt lat="45.75555" lon="8.94627"><ele>413.3333333333333</ele><time>2026-04-23T14:17:37.283Z</time></trkpt><trkpt lat="45.75563" lon="8.94625"><ele>414.0</ele><time>2026-04-23T14:17:39.282Z</time></trkpt><trkpt lat="45.7557033" lon="8.946225"><ele>414.0</ele><time>2026-04-23T14:17:42.283Z</time></trkpt><trkpt lat="45.7557867" lon="8.9462117"><ele>414.0</ele><time>2026-04-23T14:17:45.283Z</time></trkpt><trkpt lat="45.7558717" lon="8.9461767"><ele>414.0</ele><time>2026-04-23T14:17:47.281Z</time></trkpt><trkpt lat="45.755925" lon="8.9461217"><ele>414.0</ele><time>2026-04-23T14:17:49.282Z</time></trkpt><trkpt lat="45.7559867" lon="8.9460717"><ele>414.0</ele><time>2026-04-23T14:17:51.284Z</time></trkpt><trkpt lat="45.7560583" lon="8.9460267"><ele>414.0</ele><time>2026-04-23T14:17:54.282Z</time></trkpt><trkpt lat="45.756135" lon="8.9460017"><ele>414.1666666666667</ele><time>2026-04-23T14:17:56.283Z</time></trkpt><trkpt lat="45.7562183" lon="8.9459817"><ele>414.33333333333337</ele><time>2026-04-23T14:17:58.283Z</time></trkpt><trkpt lat="45.7563083" lon="8.9459717"><ele>414.5</ele><time>2026-04-23T14:18:00.283Z</time></trkpt><trkpt lat="45.7563983" lon="8.9459633"><ele>414.6666666666667</ele><time>2026-04-23T14:18:02.282Z</time></trkpt><trkpt lat="45.7564733" lon="8.9459467"><ele>414.83333333333337</ele><time>2026-04-23T14:18:04.282Z</time></trkpt><trkpt lat="45.7565733" lon="8.9459167"><ele>415.0</ele><time>2026-04-23T14:18:06.283Z</time></trkpt><trkpt lat="45.7566717" lon="8.945895"><ele>415.00000000000006</ele><time>2026-04-23T14:18:08.282Z</time></trkpt><trkpt lat="45.7567617" lon="8.945885"><ele>415.0</ele><time>2026-04-23T14:18:10.284Z</time></trkpt><trkpt lat="45.75684" lon="8.9458683"><ele>415.0</ele><time>2026-04-23T14:18:12.283Z</time></trkpt><trkpt lat="45.7569183" lon="8.9458483"><ele>415.0</ele><time>2026-04-23T14:18:14.285Z</time></trkpt><trkpt lat="45.7569917" lon="8.9458233"><ele>415.00000000000006</ele><time>2026-04-23T14:18:16.282Z</time></trkpt><trkpt lat="45.7570683" lon="8.94581"><ele>415.0</ele><time>2026-04-23T14:18:18.282Z</time></trkpt><trkpt lat="45.757155" lon="8.94581"><ele>415.33333333333337</ele><time>2026-04-23T14:18:20.283Z</time></trkpt><trkpt lat="45.7572367" lon="8.9457967"><ele>415.6666666666667</ele><time>2026-04-23T14:18:22.284Z</time></trkpt><trkpt lat="45.7573067" lon="8.945785"><ele>416.0</ele><time>2026-04-23T14:18:24.284Z</time></trkpt><trkpt lat="45.7573967" lon="8.945765"><ele>416.33333333333337</ele><time>2026-04-23T14:18:27.283Z</time></trkpt><trkpt lat="45.7574617" lon="8.9457517"><ele>416.6666666666667</ele><time>2026-04-23T14:18:29.284Z</time></trkpt><trkpt lat="45.7575583" lon="8.9457317"><ele>417.0</ele><time>2026-04-23T14:18:32.283Z</time></trkpt><trkpt lat="45.7576333" lon="8.94572"><ele>417.0</ele><time>2026-04-23T14:18:34.284Z</time></trkpt><trkpt lat="45.75771" lon="8.945745"><ele>417.0</ele><time>2026-04-23T14:18:38.284Z</time></trkpt><trkpt lat="45.7576833" lon="8.94584"><ele>417.0</ele><time>2026-04-23T14:18:42.284Z</time></trkpt><trkpt lat="45.75762" lon="8.9458967"><ele>417.0</ele><time>2026-04-23T14:18:45.282Z</time></trkpt><trkpt lat="45.7575567" lon="8.94598"><ele>417.0</ele><time>2026-04-23T14:18:48.283Z</time></trkpt><trkpt lat="45.7574833" lon="8.9460667"><ele>417.0</ele><time>2026-04-23T14:18:51.282Z</time></trkpt><trkpt lat="45.7574333" lon="8.946145"><ele>416.8333333333333</ele><time>2026-04-23T14:18:53.284Z</time></trkpt><trkpt lat="45.7573933" lon="8.9462283"><ele>416.66666666666663</ele><time>2026-04-23T14:18:55.283Z</time></trkpt><trkpt lat="45.7573583" lon="8.9463167"><ele>416.5</ele><time>2026-04-23T14:18:57.283Z</time></trkpt><trkpt lat="45.7573217" lon="8.9464017"><ele>416.3333333333333</ele><time>2026-04-23T14:18:59.282Z</time></trkpt><trkpt lat="45.7572833" lon="8.9464983"><ele>416.16666666666663</ele><time>2026-04-23T14:19:01.281Z</time></trkpt><trkpt lat="45.75724" lon="8.9466"><ele>416.0</ele><time>2026-04-23T14:19:03.282Z</time></trkpt><trkpt lat="45.7572067" lon="8.9467017"><ele>416.66666666666663</ele><time>2026-04-23T14:19:05.282Z</time></trkpt><trkpt lat="45.7571533" lon="8.9468067"><ele>417.3333333333333</ele><time>2026-04-23T14:19:08.282Z</time></trkpt><trkpt lat="45.7570933" lon="8.94686"><ele>418.0</ele><time>2026-04-23T14:19:10.282Z</time></trkpt><trkpt lat="45.7570367" lon="8.946935"><ele>418.66666666666663</ele><time>2026-04-23T14:19:12.282Z</time></trkpt><trkpt lat="45.7569967" lon="8.9470633"><ele>419.3333333333333</ele><time>2026-04-23T14:19:14.282Z</time></trkpt><trkpt lat="45.7569667" lon="8.947175"><ele>420.0</ele><time>2026-04-23T14:19:16.282Z</time></trkpt><trkpt lat="45.7569433" lon="8.9472967"><ele>420.0</ele><time>2026-04-23T14:19:19.283Z</time></trkpt><trkpt lat="45.756925" lon="8.94739"><ele>420.0</ele><time>2026-04-23T14:19:21.283Z</time></trkpt><trkpt lat="45.756925" lon="8.9474817"><ele>420.0</ele><time>2026-04-23T14:19:23.283Z</time></trkpt><trkpt lat="45.7569217" lon="8.9476"><ele>420.0</ele><time>2026-04-23T14:19:26.281Z</time></trkpt><trkpt lat="45.7568933" lon="8.9476883"><ele>420.0</ele><time>2026-04-23T14:19:28.281Z</time></trkpt><trkpt lat="45.756835" lon="8.947755"><ele>420.0</ele><time>2026-04-23T14:19:30.281Z</time></trkpt><trkpt lat="45.7567683" lon="8.947765"><ele>420.0</ele><time>2026-04-23T14:19:32.281Z</time></trkpt><trkpt lat="45.7566917" lon="8.9477267"><ele>419.8333333333333</ele><time>2026-04-23T14:19:35.282Z</time></trkpt><trkpt lat="45.7566117" lon="8.947725"><ele>419.66666666666663</ele><time>2026-04-23T14:19:38.282Z</time></trkpt><trkpt lat="45.75657" lon="8.9477933"><ele>419.5</ele><time>2026-04-23T14:19:40.282Z</time></trkpt><trkpt lat="45.75656" lon="8.94792"><ele>419.3333333333333</ele><time>2026-04-23T14:19:43.282Z</time></trkpt><trkpt lat="45.7565733" lon="8.94802"><ele>419.16666666666663</ele><time>2026-04-23T14:19:45.282Z</time></trkpt><trkpt lat="45.7565733" lon="8.9481433"><ele>419.0</ele><time>2026-04-23T14:19:48.282Z</time></trkpt><trkpt lat="45.75657" lon="8.948275"><ele>418.99999999999994</ele><time>2026-04-23T14:19:51.283Z</time></trkpt><trkpt lat="45.75658" lon="8.94837"><ele>419.0</ele><time>2026-04-23T14:19:53.282Z</time></trkpt><trkpt lat="45.7565867" lon="8.9485017"><ele>419.0</ele><time>2026-04-23T14:19:56.282Z</time></trkpt><trkpt lat="45.7565883" lon="8.9485933"><ele>419.0</ele><time>2026-04-23T14:19:58.283Z</time></trkpt><trkpt lat="45.7566017" lon="8.9487017"><ele>419.0</ele><time>2026-04-23T14:20:00.283Z</time></trkpt><trkpt lat="45.7565983" lon="8.9488"><ele>418.99999999999994</ele><time>2026-04-23T14:20:02.283Z</time></trkpt><trkpt lat="45.75659" lon="8.9488983"><ele>419.0</ele><time>2026-04-23T14:20:04.282Z</time></trkpt><trkpt lat="45.7566033" lon="8.949015"><ele>418.49999999999994</ele><time>2026-04-23T14:20:06.282Z</time></trkpt><trkpt lat="45.7566083" lon="8.9491233"><ele>418.0</ele><time>2026-04-23T14:20:08.282Z</time></trkpt><trkpt lat="45.756595" lon="8.9492517"><ele>417.5</ele><time>2026-04-23T14:20:11.283Z</time></trkpt><trkpt lat="45.756605" lon="8.94939"><ele>417.0</ele><time>2026-04-23T14:20:14.282Z</time></trkpt><trkpt lat="45.7566167" lon="8.9494967"><ele>416.49999999999994</ele><time>2026-04-23T14:20:16.282Z</time></trkpt><trkpt lat="45.7566217" lon="8.949645"><ele>416.0</ele><time>2026-04-23T14:20:18.282Z</time></trkpt><trkpt lat="45.7566267" lon="8.9498017"><ele>416.16666666666663</ele><time>2026-04-23T14:20:20.283Z</time></trkpt><trkpt lat="45.756605" lon="8.9499267"><ele>416.3333333333333</ele><time>2026-04-23T14:20:22.282Z</time></trkpt><trkpt lat="45.7565433" lon="8.949995"><ele>416.5</ele><time>2026-04-23T14:20:24.282Z</time></trkpt><trkpt lat="45.7564783" lon="8.9500783"><ele>416.66666666666663</ele><time>2026-04-23T14:20:26.282Z</time></trkpt><trkpt lat="45.7563883" lon="8.9501433"><ele>416.8333333333333</ele><time>2026-04-23T14:20:49.281Z</time></trkpt><trkpt lat="45.7563117" lon="8.9501383"><ele>417.0</ele><time>2026-04-23T14:20:53.282Z</time></trkpt><trkpt lat="45.7562417" lon="8.9501867"><ele>417.0</ele><time>2026-04-23T14:20:56.282Z</time></trkpt><trkpt lat="45.7561583" lon="8.95022"><ele>417.0</ele><time>2026-04-23T14:20:59.282Z</time></trkpt><trkpt lat="45.756095" lon="8.950325"><ele>417.0</ele><time>2026-04-23T14:21:02.281Z</time></trkpt><trkpt lat="45.756065" lon="8.95042"><ele>417.0</ele><time>2026-04-23T14:21:04.282Z</time></trkpt><trkpt lat="45.756045" lon="8.9505067"><ele>417.0</ele><time>2026-04-23T14:21:06.281Z</time></trkpt><trkpt lat="45.75598" lon="8.95054"><ele>417.0</ele><time>2026-04-23T14:21:09.281Z</time></trkpt><trkpt lat="45.7559017" lon="8.9505983"><ele>416.6666666666667</ele><time>2026-04-23T14:21:23.283Z</time></trkpt><trkpt lat="45.755815" lon="8.9506317"><ele>416.33333333333337</ele><time>2026-04-23T14:21:28.281Z</time></trkpt><trkpt lat="45.7557517" lon="8.9506933"><ele>416.0</ele><time>2026-04-23T14:21:31.285Z</time></trkpt><trkpt lat="45.75572" lon="8.9507833"><ele>415.6666666666667</ele><time>2026-04-23T14:21:35.282Z</time></trkpt><trkpt lat="45.7556617" lon="8.9508567"><ele>415.33333333333337</ele><time>2026-04-23T14:21:39.28Z</time></trkpt><trkpt lat="45.755605" lon="8.9509067"><ele>415.0</ele><time>2026-04-23T14:21:42.28Z</time></trkpt><trkpt lat="45.75553" lon="8.9509533"><ele>415.6666666666667</ele><time>2026-04-23T14:21:45.28Z</time></trkpt><trkpt lat="45.755465" lon="8.9510183"><ele>416.33333333333337</ele><time>2026-04-23T14:21:48.28Z</time></trkpt><trkpt lat="45.755415" lon="8.95108"><ele>417.0</ele><time>2026-04-23T14:21:51.281Z</time></trkpt><trkpt lat="45.7553533" lon="8.9511883"><ele>417.66666666666663</ele><time>2026-04-23T14:21:55.281Z</time></trkpt><trkpt lat="45.7553133" lon="8.9512617"><ele>418.3333333333333</ele><time>2026-04-23T14:21:57.28Z</time></trkpt><trkpt lat="45.75528" lon="8.951345"><ele>419.0</ele><time>2026-04-23T14:22:00.28Z</time></trkpt><trkpt lat="45.7552467" lon="8.951455"><ele>418.99999999999994</ele><time>2026-04-23T14:22:04.28Z</time></trkpt><trkpt lat="45.75521" lon="8.951535"><ele>419.0</ele><time>2026-04-23T14:22:07.28Z</time></trkpt><trkpt lat="45.7551767" lon="8.951625"><ele>419.0</ele><time>2026-04-23T14:22:10.28Z</time></trkpt><trkpt lat="45.755115" lon="8.951695"><ele>419.0</ele><time>2026-04-23T14:22:14.281Z</time></trkpt><trkpt lat="45.755045" lon="8.95171"><ele>419.0</ele><time>2026-04-23T14:22:17.28Z</time></trkpt><trkpt lat="45.7549967" lon="8.9517683"><ele>418.99999999999994</ele><time>2026-04-23T14:22:20.281Z</time></trkpt><trkpt lat="45.7549433" lon="8.951865"><ele>419.0</ele><time>2026-04-23T14:22:24.281Z</time></trkpt><trkpt lat="45.7548933" lon="8.9519317"><ele>418.8333333333333</ele><time>2026-04-23T14:22:28.281Z</time></trkpt><trkpt lat="45.754815" lon="8.9519683"><ele>418.66666666666663</ele><time>2026-04-23T14:22:31.282Z</time></trkpt><trkpt lat="45.7547483" lon="8.9519767"><ele>418.5</ele><time>2026-04-23T14:22:33.28Z</time></trkpt><trkpt lat="45.754675" lon="8.951985"><ele>418.33333333333337</ele><time>2026-04-23T14:22:35.28Z</time></trkpt><trkpt lat="45.7545983" lon="8.9520383"><ele>418.1666666666667</ele><time>2026-04-23T14:22:37.28Z</time></trkpt><trkpt lat="45.7545333" lon="8.9521233"><ele>418.0</ele><time>2026-04-23T14:22:39.28Z</time></trkpt><trkpt lat="45.7544767" lon="8.9521883"><ele>418.00000000000006</ele><time>2026-04-23T14:22:42.28Z</time></trkpt><trkpt lat="45.7544183" lon="8.9522433"><ele>418.0</ele><time>2026-04-23T14:22:45.28Z</time></trkpt><trkpt lat="45.7543517" lon="8.9522783"><ele>418.0</ele><time>2026-04-23T14:22:48.281Z</time></trkpt><trkpt lat="45.7542883" lon="8.952275"><ele>418.0</ele><time>2026-04-23T14:22:50.281Z</time></trkpt><trkpt lat="45.7542117" lon="8.9523033"><ele>418.00000000000006</ele><time>2026-04-23T14:22:52.28Z</time></trkpt><trkpt lat="45.75412" lon="8.9523233"><ele>418.0</ele><time>2026-04-23T14:22:55.28Z</time></trkpt><trkpt lat="45.754035" lon="8.952315"><ele>418.1428571428571</ele><time>2026-04-23T14:22:58.28Z</time></trkpt><trkpt lat="45.7539633" lon="8.952335"><ele>418.2857142857143</ele><time>2026-04-23T14:23:00.28Z</time></trkpt><trkpt lat="45.753895" lon="8.9523333"><ele>418.42857142857144</ele><time>2026-04-23T14:23:02.28Z</time></trkpt><trkpt lat="45.75382" lon="8.952325"><ele>418.57142857142856</ele><time>2026-04-23T14:23:04.28Z</time></trkpt><trkpt lat="45.7537517" lon="8.9523433"><ele>418.7142857142857</ele><time>2026-04-23T14:23:06.28Z</time></trkpt><trkpt lat="45.7536783" lon="8.9523717"><ele>418.85714285714283</ele><time>2026-04-23T14:23:08.28Z</time></trkpt><trkpt lat="45.7536" lon="8.95242"><ele>419.0</ele><time>2026-04-23T14:23:10.28Z</time></trkpt><trkpt lat="45.75353" lon="8.9524283"><ele>418.99999999999994</ele><time>2026-04-23T14:23:12.28Z</time></trkpt><trkpt lat="45.7534583" lon="8.952445"><ele>419.0</ele><time>2026-04-23T14:23:14.28Z</time></trkpt><trkpt lat="45.7533867" lon="8.9524583"><ele>419.0</ele><time>2026-04-23T14:23:16.28Z</time></trkpt><trkpt lat="45.7533033" lon="8.952485"><ele>419.0</ele><time>2026-04-23T14:23:18.281Z</time></trkpt><trkpt lat="45.753225" lon="8.952465"><ele>418.99999999999994</ele><time>2026-04-23T14:23:20.285Z</time></trkpt><trkpt lat="45.7531567" lon="8.9524617"><ele>419.0</ele><time>2026-04-23T14:23:22.28Z</time></trkpt><trkpt lat="45.7530767" lon="8.9524533"><ele>418.99999999999994</ele><time>2026-04-23T14:23:24.281Z</time></trkpt><trkpt lat="45.7530067" lon="8.952445"><ele>419.0</ele><time>2026-04-23T14:23:26.282Z</time></trkpt><trkpt lat="45.7529317" lon="8.9524533"><ele>419.0</ele><time>2026-04-23T14:23:28.28Z</time></trkpt><trkpt lat="45.752845" lon="8.9524433"><ele>419.0</ele><time>2026-04-23T14:23:30.282Z</time></trkpt><trkpt lat="45.75276" lon="8.95242"><ele>418.99999999999994</ele><time>2026-04-23T14:23:32.28Z</time></trkpt><trkpt lat="45.75266" lon="8.9524133"><ele>419.0</ele><time>2026-04-23T14:23:34.282Z</time></trkpt><trkpt lat="45.752575" lon="8.9524067"><ele>418.0</ele><time>2026-04-23T14:23:36.281Z</time></trkpt><trkpt lat="45.7524817" lon="8.9524033"><ele>417.0</ele><time>2026-04-23T14:23:38.281Z</time></trkpt><trkpt lat="45.7523917" lon="8.9524117"><ele>416.0</ele><time>2026-04-23T14:23:40.283Z</time></trkpt><trkpt lat="45.7522867" lon="8.9524317"><ele>415.0</ele><time>2026-04-23T14:23:42.28Z</time></trkpt><trkpt lat="45.7522" lon="8.9524417"><ele>414.0</ele><time>2026-04-23T14:23:44.282Z</time></trkpt><trkpt lat="45.7521083" lon="8.9524817"><ele>413.4</ele><time>2026-04-23T14:23:46.281Z</time></trkpt><trkpt lat="45.7519933" lon="8.9525533"><ele>412.79999999999995</ele><time>2026-04-23T14:23:48.281Z</time></trkpt><trkpt lat="45.7518833" lon="8.952575"><ele>412.20000000000005</ele><time>2026-04-23T14:23:50.281Z</time></trkpt><trkpt lat="45.7517983" lon="8.9525667"><ele>411.6</ele><time>2026-04-23T14:23:52.281Z</time></trkpt><trkpt lat="45.7517583" lon="8.9526417"><ele>411.0</ele><time>2026-04-23T14:23:54.28Z</time></trkpt><trkpt lat="45.75169" lon="8.95275"><ele>410.6</ele><time>2026-04-23T14:23:57.28Z</time></trkpt><trkpt lat="45.7516017" lon="8.9528"><ele>410.20000000000005</ele><time>2026-04-23T14:23:59.281Z</time></trkpt><trkpt lat="45.7515067" lon="8.9528117"><ele>409.79999999999995</ele><time>2026-04-23T14:24:01.281Z</time></trkpt><trkpt lat="45.7514133" lon="8.9528583"><ele>409.4</ele><time>2026-04-23T14:24:03.281Z</time></trkpt><trkpt lat="45.7513317" lon="8.952915"><ele>409.0</ele><time>2026-04-23T14:24:05.28Z</time></trkpt><trkpt lat="45.751255" lon="8.952955"><ele>409.0</ele><time>2026-04-23T14:24:07.281Z</time></trkpt><trkpt lat="45.7511833" lon="8.9529867"><ele>409.0</ele><time>2026-04-23T14:24:09.283Z</time></trkpt><trkpt lat="45.7510983" lon="8.953035"><ele>409.0</ele><time>2026-04-23T14:24:11.281Z</time></trkpt><trkpt lat="45.7510133" lon="8.9530717"><ele>409.0</ele><time>2026-04-23T14:24:13.28Z</time></trkpt><trkpt lat="45.7509117" lon="8.95311"><ele>409.0</ele><time>2026-04-23T14:24:15.28Z</time></trkpt><trkpt lat="45.7507983" lon="8.95314"><ele>408.1666666666667</ele><time>2026-04-23T14:24:17.281Z</time></trkpt><trkpt lat="45.7507083" lon="8.953195"><ele>407.33333333333337</ele><time>2026-04-23T14:24:19.281Z</time></trkpt><trkpt lat="45.75066" lon="8.9532983"><ele>406.5</ele><time>2026-04-23T14:24:23.281Z</time></trkpt><trkpt lat="45.7506833" lon="8.953395"><ele>405.66666666666663</ele><time>2026-04-23T14:24:26.281Z</time></trkpt><trkpt lat="45.7507267" lon="8.9534883"><ele>404.8333333333333</ele><time>2026-04-23T14:24:29.281Z</time></trkpt><trkpt lat="45.7507867" lon="8.9535333"><ele>404.0</ele><time>2026-04-23T14:24:31.281Z</time></trkpt><trkpt lat="45.7508467" lon="8.9535867"><ele>404.16666666666663</ele><time>2026-04-23T14:24:33.282Z</time></trkpt><trkpt lat="45.750925" lon="8.9536633"><ele>404.3333333333333</ele><time>2026-04-23T14:24:36.281Z</time></trkpt><trkpt lat="45.7509783" lon="8.95376"><ele>404.5</ele><time>2026-04-23T14:24:39.282Z</time></trkpt><trkpt lat="45.75104" lon="8.9538233"><ele>404.66666666666663</ele><time>2026-04-23T14:24:42.281Z</time></trkpt><trkpt lat="45.7511" lon="8.9538583"><ele>404.8333333333333</ele><time>2026-04-23T14:24:45.281Z</time></trkpt><trkpt lat="45.7511583" lon="8.95393"><ele>405.0</ele><time>2026-04-23T14:24:48.281Z</time></trkpt><trkpt lat="45.7511917" lon="8.9540217"><ele>405.0</ele><time>2026-04-23T14:24:50.283Z</time></trkpt><trkpt lat="45.75125" lon="8.9541133"><ele>405.0</ele><time>2026-04-23T14:24:52.282Z</time></trkpt><trkpt lat="45.7512967" lon="8.9541933"><ele>405.0</ele><time>2026-04-23T14:24:54.282Z</time></trkpt><trkpt lat="45.7513467" lon="8.9542867"><ele>405.0</ele><time>2026-04-23T14:24:56.282Z</time></trkpt><trkpt lat="45.7514117" lon="8.95438"><ele>405.0</ele><time>2026-04-23T14:24:58.283Z</time></trkpt><trkpt lat="45.7514433" lon="8.9544583"><ele>405.0</ele><time>2026-04-23T14:25:00.281Z</time></trkpt><trkpt lat="45.75147" lon="8.9545433"><ele>404.3333333333333</ele><time>2026-04-23T14:25:02.282Z</time></trkpt><trkpt lat="45.75153" lon="8.9546317"><ele>403.66666666666663</ele><time>2026-04-23T14:25:04.281Z</time></trkpt><trkpt lat="45.751595" lon="8.954735"><ele>403.0</ele><time>2026-04-23T14:25:06.281Z</time></trkpt><trkpt lat="45.7516483" lon="8.9548633"><ele>402.3333333333333</ele><time>2026-04-23T14:25:08.282Z</time></trkpt><trkpt lat="45.7516567" lon="8.9549667"><ele>401.66666666666663</ele><time>2026-04-23T14:25:10.282Z</time></trkpt><trkpt lat="45.7516533" lon="8.9550767"><ele>401.0</ele><time>2026-04-23T14:25:12.282Z</time></trkpt><trkpt lat="45.751685" lon="8.9551983"><ele>400.99999999999994</ele><time>2026-04-23T14:25:14.282Z</time></trkpt><trkpt lat="45.7517067" lon="8.9553333"><ele>401.0</ele><time>2026-04-23T14:25:16.282Z</time></trkpt><trkpt lat="45.7517183" lon="8.955475"><ele>401.0</ele><time>2026-04-23T14:25:18.282Z</time></trkpt><trkpt lat="45.75173" lon="8.955575"><ele>401.0</ele><time>2026-04-23T14:25:20.282Z</time></trkpt><trkpt lat="45.7517367" lon="8.95569"><ele>400.99999999999994</ele><time>2026-04-23T14:25:22.281Z</time></trkpt><trkpt lat="45.75175" lon="8.955815"><ele>401.0</ele><time>2026-04-23T14:25:24.281Z</time></trkpt><trkpt lat="45.75178" lon="8.9559383"><ele>401.0</ele><time>2026-04-23T14:25:26.282Z</time></trkpt><trkpt lat="45.7517817" lon="8.95607"><ele>401.0</ele><time>2026-04-23T14:25:28.282Z</time></trkpt><trkpt lat="45.7518183" lon="8.9561967"><ele>401.0</ele><time>2026-04-23T14:25:30.283Z</time></trkpt><trkpt lat="45.7518733" lon="8.9563033"><ele>401.0</ele><time>2026-04-23T14:25:32.282Z</time></trkpt><trkpt lat="45.7519067" lon="8.9564283"><ele>401.0</ele><time>2026-04-23T14:25:34.282Z</time></trkpt><trkpt lat="45.751955" lon="8.9565467"><ele>401.0</ele><time>2026-04-23T14:25:36.281Z</time></trkpt><trkpt lat="45.7520233" lon="8.9566683"><ele>401.0</ele><time>2026-04-23T14:25:38.282Z</time></trkpt><trkpt lat="45.752095" lon="8.95678"><ele>401.0</ele><time>2026-04-23T14:25:40.281Z</time></trkpt><trkpt lat="45.7521383" lon="8.956925"><ele>401.0</ele><time>2026-04-23T14:25:42.282Z</time></trkpt><trkpt lat="45.7521683" lon="8.9570117"><ele>401.0</ele><time>2026-04-23T14:25:43.283Z</time></trkpt><trkpt lat="45.752205" lon="8.9571017"><ele>400.25</ele><time>2026-04-23T14:25:44.282Z</time></trkpt><trkpt lat="45.7522367" lon="8.9572717"><ele>399.5</ele><time>2026-04-23T14:25:46.282Z</time></trkpt><trkpt lat="45.75226" lon="8.95744"><ele>398.75</ele><time>2026-04-23T14:25:48.283Z</time></trkpt><trkpt lat="45.7522967" lon="8.9575883"><ele>398.0</ele><time>2026-04-23T14:25:50.283Z</time></trkpt><trkpt lat="45.7523333" lon="8.9577483"><ele>397.4</ele><time>2026-04-23T14:25:52.282Z</time></trkpt><trkpt lat="45.7523583" lon="8.9579067"><ele>396.79999999999995</ele><time>2026-04-23T14:25:54.283Z</time></trkpt><trkpt lat="45.7523733" lon="8.9580683"><ele>396.2</ele><time>2026-04-23T14:25:56.284Z</time></trkpt><trkpt lat="45.7523983" lon="8.9582167"><ele>395.6</ele><time>2026-04-23T14:25:58.283Z</time></trkpt><trkpt lat="45.752425" lon="8.95836"><ele>395.0</ele><time>2026-04-23T14:26:00.283Z</time></trkpt><trkpt lat="45.7524767" lon="8.9585067"><ele>394.75</ele><time>2026-04-23T14:26:02.283Z</time></trkpt><trkpt lat="45.7525217" lon="8.9586667"><ele>394.5</ele><time>2026-04-23T14:26:04.283Z</time></trkpt><trkpt lat="45.7525333" lon="8.9588317"><ele>394.25</ele><time>2026-04-23T14:26:06.283Z</time></trkpt><trkpt lat="45.7525717" lon="8.9589817"><ele>394.0</ele><time>2026-04-23T14:26:08.284Z</time></trkpt><trkpt lat="45.752635" lon="8.9591283"><ele>394.4</ele><time>2026-04-23T14:26:10.283Z</time></trkpt><trkpt lat="45.75269" lon="8.9592733"><ele>394.79999999999995</ele><time>2026-04-23T14:26:12.283Z</time></trkpt><trkpt lat="45.7527233" lon="8.9594133"><ele>395.20000000000005</ele><time>2026-04-23T14:26:14.283Z</time></trkpt><trkpt lat="45.7527733" lon="8.9595567"><ele>395.6</ele><time>2026-04-23T14:26:16.283Z</time></trkpt><trkpt lat="45.752805" lon="8.9596717"><ele>396.0</ele><time>2026-04-23T14:26:18.283Z</time></trkpt><trkpt lat="45.7528367" lon="8.9597817"><ele>396.1666666666667</ele><time>2026-04-23T14:26:21.283Z</time></trkpt><trkpt lat="45.7529017" lon="8.9598783"><ele>396.33333333333337</ele><time>2026-04-23T14:26:24.283Z</time></trkpt><trkpt lat="45.7529733" lon="8.9599283"><ele>396.5</ele><time>2026-04-23T14:26:26.283Z</time></trkpt><trkpt lat="45.753045" lon="8.959985"><ele>396.6666666666667</ele><time>2026-04-23T14:26:28.283Z</time></trkpt><trkpt lat="45.7531133" lon="8.9600517"><ele>396.83333333333337</ele><time>2026-04-23T14:26:30.283Z</time></trkpt><trkpt lat="45.7531917" lon="8.9601117"><ele>397.0</ele><time>2026-04-23T14:26:32.283Z</time></trkpt><trkpt lat="45.7532667" lon="8.9601783"><ele>397.00000000000006</ele><time>2026-04-23T14:26:34.282Z</time></trkpt><trkpt lat="45.7533317" lon="8.9602483"><ele>397.0</ele><time>2026-04-23T14:26:36.283Z</time></trkpt><trkpt lat="45.7533833" lon="8.9603083"><ele>397.0</ele><time>2026-04-23T14:26:38.283Z</time></trkpt><trkpt lat="45.7534617" lon="8.960325"><ele>397.0</ele><time>2026-04-23T14:26:40.282Z</time></trkpt><trkpt lat="45.7535367" lon="8.9603033"><ele>397.00000000000006</ele><time>2026-04-23T14:26:42.282Z</time></trkpt><trkpt lat="45.75362" lon="8.9602783"><ele>397.0</ele><time>2026-04-23T14:26:44.283Z</time></trkpt><trkpt lat="45.7536933" lon="8.9602567"><ele>396.83333333333337</ele><time>2026-04-23T14:26:46.282Z</time></trkpt><trkpt lat="45.7537567" lon="8.96021"><ele>396.6666666666667</ele><time>2026-04-23T14:26:48.282Z</time></trkpt><trkpt lat="45.7538233" lon="8.9601717"><ele>396.5</ele><time>2026-04-23T14:26:50.283Z</time></trkpt><trkpt lat="45.7539117" lon="8.9601433"><ele>396.33333333333337</ele><time>2026-04-23T14:26:52.283Z</time></trkpt><trkpt lat="45.7539883" lon="8.9601"><ele>396.1666666666667</ele><time>2026-04-23T14:26:54.283Z</time></trkpt><trkpt lat="45.75406" lon="8.9600567"><ele>396.0</ele><time>2026-04-23T14:26:56.283Z</time></trkpt><trkpt lat="45.7541383" lon="8.9600117"><ele>396.0</ele><time>2026-04-23T14:26:58.284Z</time></trkpt><trkpt lat="45.75421" lon="8.95998"><ele>396.0</ele><time>2026-04-23T14:27:00.283Z</time></trkpt><trkpt lat="45.7542867" lon="8.9599483"><ele>396.0</ele><time>2026-04-23T14:27:02.284Z</time></trkpt><trkpt lat="45.7543817" lon="8.959915"><ele>396.0</ele><time>2026-04-23T14:27:04.283Z</time></trkpt><trkpt lat="45.75447" lon="8.95989"><ele>396.0</ele><time>2026-04-23T14:27:08.283Z</time></trkpt><trkpt lat="45.754565" lon="8.9599233"><ele>396.0</ele><time>2026-04-23T14:31:17.283Z</time></trkpt><trkpt lat="45.754085" lon="8.9601317"><ele>396.0</ele><time>2026-04-23T14:32:20.179Z</time></trkpt><trkpt lat="45.7543217" lon="8.9600367"><ele>396.0</ele><time>2026-04-23T14:32:21.513Z</time></trkpt><trkpt lat="45.7544617" lon="8.96003"><ele>396.0</ele><time>2026-04-23T14:32:23.281Z</time></trkpt><trkpt lat="45.7545583" lon="8.96003"><ele>396.6666666666667</ele><time>2026-04-23T14:32:31.281Z</time></trkpt><trkpt lat="45.7546617" lon="8.9599"><ele>397.33333333333337</ele><time>2026-04-23T14:34:13.282Z</time></trkpt><trkpt lat="45.7546817" lon="8.960005"><ele>398.0</ele><time>2026-04-23T14:34:48.283Z</time></trkpt><trkpt lat="45.7547167" lon="8.9600983"><ele>398.6666666666667</ele><time>2026-04-23T14:34:51.283Z</time></trkpt><trkpt lat="45.7547467" lon="8.9601967"><ele>399.33333333333337</ele><time>2026-04-23T14:34:53.283Z</time></trkpt><trkpt lat="45.7547717" lon="8.9603"><ele>400.0</ele><time>2026-04-23T14:34:55.28Z</time></trkpt><trkpt lat="45.7548" lon="8.9604167"><ele>400.0</ele><time>2026-04-23T14:34:57.282Z</time></trkpt><trkpt lat="45.7548333" lon="8.960555"><ele>400.0</ele><time>2026-04-23T14:34:59.282Z</time></trkpt><trkpt lat="45.7548533" lon="8.96071"><ele>400.0</ele><time>2026-04-23T14:35:01.283Z</time></trkpt><trkpt lat="45.7548767" lon="8.9608667"><ele>400.0</ele><time>2026-04-23T14:35:03.284Z</time></trkpt><trkpt lat="45.75491" lon="8.9610117"><ele>400.0</ele><time>2026-04-23T14:35:05.283Z</time></trkpt><trkpt lat="45.7549567" lon="8.9611567"><ele>399.50000000000006</ele><time>2026-04-23T14:35:07.282Z</time></trkpt><trkpt lat="45.755" lon="8.9613033"><ele>399.0</ele><time>2026-04-23T14:35:09.283Z</time></trkpt><trkpt lat="45.7550333" lon="8.9614417"><ele>398.5</ele><time>2026-04-23T14:35:11.283Z</time></trkpt><trkpt lat="45.7550633" lon="8.9615633"><ele>398.0</ele><time>2026-04-23T14:35:13.284Z</time></trkpt><trkpt lat="45.7550767" lon="8.9616583"><ele>397.50000000000006</ele><time>2026-04-23T14:35:15.281Z</time></trkpt><trkpt lat="45.7551033" lon="8.961755"><ele>397.0</ele><time>2026-04-23T14:35:18.283Z</time></trkpt><trkpt lat="45.7550333" lon="8.9617617"><ele>397.00000000000006</ele><time>2026-04-23T14:35:23.282Z</time></trkpt><trkpt lat="45.7549567" lon="8.9617183"><ele>397.0</ele><time>2026-04-23T14:35:25.281Z</time></trkpt><trkpt lat="45.7548783" lon="8.9616783"><ele>397.0</ele><time>2026-04-23T14:35:27.282Z</time></trkpt><trkpt lat="45.75481" lon="8.961655"><ele>397.0</ele><time>2026-04-23T14:35:29.282Z</time></trkpt><trkpt lat="45.7547367" lon="8.9616717"><ele>397.00000000000006</ele><time>2026-04-23T14:35:31.283Z</time></trkpt><trkpt lat="45.7546667" lon="8.9617217"><ele>397.0</ele><time>2026-04-23T14:35:33.283Z</time></trkpt><trkpt lat="45.7545917" lon="8.9617883"><ele>397.0</ele><time>2026-04-23T14:35:35.283Z</time></trkpt><trkpt lat="45.7545083" lon="8.9618483"><ele>397.0</ele><time>2026-04-23T14:35:37.283Z</time></trkpt><trkpt lat="45.754425" lon="8.961905"><ele>397.0</ele><time>2026-04-23T14:35:39.282Z</time></trkpt><trkpt lat="45.7543417" lon="8.96198"><ele>397.0</ele><time>2026-04-23T14:35:41.282Z</time></trkpt><trkpt lat="45.75425" lon="8.962065"><ele>397.0</ele><time>2026-04-23T14:35:43.281Z</time></trkpt><trkpt lat="45.754165" lon="8.9621667"><ele>396.6666666666667</ele><time>2026-04-23T14:35:45.282Z</time></trkpt><trkpt lat="45.7540933" lon="8.9622583"><ele>396.33333333333337</ele><time>2026-04-23T14:35:47.283Z</time></trkpt><trkpt lat="45.7540217" lon="8.9623467"><ele>396.0</ele><time>2026-04-23T14:35:49.284Z</time></trkpt><trkpt lat="45.7539567" lon="8.9624233"><ele>395.66666666666663</ele><time>2026-04-23T14:35:51.283Z</time></trkpt><trkpt lat="45.753885" lon="8.9624967"><ele>395.3333333333333</ele><time>2026-04-23T14:35:53.282Z</time></trkpt><trkpt lat="45.7538233" lon="8.9625667"><ele>395.0</ele><time>2026-04-23T14:35:55.283Z</time></trkpt><trkpt lat="45.75377" lon="8.9626633"><ele>395.0</ele><time>2026-04-23T14:35:57.282Z</time></trkpt><trkpt lat="45.7537233" lon="8.962785"><ele>395.0</ele><time>2026-04-23T14:35:59.283Z</time></trkpt><trkpt lat="45.75368" lon="8.96293"><ele>395.0</ele><time>2026-04-23T14:36:01.284Z</time></trkpt><trkpt lat="45.7536433" lon="8.9630833"><ele>395.0</ele><time>2026-04-23T14:36:03.283Z</time></trkpt><trkpt lat="45.75362" lon="8.9632283"><ele>395.0</ele><time>2026-04-23T14:36:05.283Z</time></trkpt><trkpt lat="45.7536083" lon="8.9634"><ele>394.66666666666663</ele><time>2026-04-23T14:36:07.283Z</time></trkpt><trkpt lat="45.75362" lon="8.963585"><ele>394.3333333333333</ele><time>2026-04-23T14:36:09.283Z</time></trkpt><trkpt lat="45.753645" lon="8.9636867"><ele>394.0</ele><time>2026-04-23T14:36:10.282Z</time></trkpt><trkpt lat="45.753665" lon="8.9637817"><ele>393.66666666666663</ele><time>2026-04-23T14:36:11.281Z</time></trkpt><trkpt lat="45.7536783" lon="8.9638767"><ele>393.3333333333333</ele><time>2026-04-23T14:36:12.282Z</time></trkpt><trkpt lat="45.753695" lon="8.963965"><ele>393.0</ele><time>2026-04-23T14:36:13.281Z</time></trkpt><trkpt lat="45.75371" lon="8.9640567"><ele>392.0</ele><time>2026-04-23T14:36:14.281Z</time></trkpt><trkpt lat="45.753745" lon="8.9642133"><ele>391.0</ele><time>2026-04-23T14:36:16.282Z</time></trkpt><trkpt lat="45.7537883" lon="8.9643483"><ele>390.0</ele><time>2026-04-23T14:36:18.282Z</time></trkpt><trkpt lat="45.7538517" lon="8.9644817"><ele>389.0</ele><time>2026-04-23T14:36:20.283Z</time></trkpt><trkpt lat="45.7538967" lon="8.96462"><ele>388.0</ele><time>2026-04-23T14:36:22.282Z</time></trkpt><trkpt lat="45.7539417" lon="8.9647717"><ele>388.0</ele><time>2026-04-23T14:36:24.283Z</time></trkpt><trkpt lat="45.7539817" lon="8.9649267"><ele>388.0</ele><time>2026-04-23T14:36:26.284Z</time></trkpt><trkpt lat="45.7540267" lon="8.9650867"><ele>388.0</ele><time>2026-04-23T14:36:28.282Z</time></trkpt><trkpt lat="45.7540483" lon="8.9652233"><ele>388.0</ele><time>2026-04-23T14:36:30.283Z</time></trkpt><trkpt lat="45.75406" lon="8.9653417"><ele>388.0</ele><time>2026-04-23T14:36:32.284Z</time></trkpt><trkpt lat="45.7540917" lon="8.9654867"><ele>386.59999999999997</ele><time>2026-04-23T14:36:34.282Z</time></trkpt><trkpt lat="45.7541133" lon="8.9656617"><ele>385.2</ele><time>2026-04-23T14:36:36.282Z</time></trkpt><trkpt lat="45.7541383" lon="8.9658167"><ele>383.8</ele><time>2026-04-23T14:36:38.282Z</time></trkpt><trkpt lat="45.7541667" lon="8.965995"><ele>382.4</ele><time>2026-04-23T14:36:40.282Z</time></trkpt><trkpt lat="45.7541817" lon="8.9660933"><ele>381.0</ele><time>2026-04-23T14:36:41.283Z</time></trkpt><trkpt lat="45.7542067" lon="8.9662067"><ele>380.1666666666667</ele><time>2026-04-23T14:36:42.283Z</time></trkpt><trkpt lat="45.7542383" lon="8.9663017"><ele>379.3333333333333</ele><time>2026-04-23T14:36:43.282Z</time></trkpt><trkpt lat="45.754255" lon="8.96639"><ele>378.5</ele><time>2026-04-23T14:36:44.281Z</time></trkpt><trkpt lat="45.75428" lon="8.96655"><ele>377.66666666666663</ele><time>2026-04-23T14:36:46.283Z</time></trkpt><trkpt lat="45.75428" lon="8.966665"><ele>376.8333333333333</ele><time>2026-04-23T14:36:48.283Z</time></trkpt><trkpt lat="45.75426" lon="8.9667717"><ele>376.0</ele><time>2026-04-23T14:36:50.282Z</time></trkpt><trkpt lat="45.7542367" lon="8.96688"><ele>375.0</ele><time>2026-04-23T14:36:52.283Z</time></trkpt><trkpt lat="45.7542017" lon="8.9669983"><ele>374.0</ele><time>2026-04-23T14:36:54.283Z</time></trkpt><trkpt lat="45.7541667" lon="8.9671133"><ele>373.0</ele><time>2026-04-23T14:36:56.283Z</time></trkpt><trkpt lat="45.7541367" lon="8.9672283"><ele>372.0</ele><time>2026-04-23T14:36:58.282Z</time></trkpt><trkpt lat="45.7541017" lon="8.9673617"><ele>371.0</ele><time>2026-04-23T14:37:00.283Z</time></trkpt><trkpt lat="45.7540683" lon="8.9674833"><ele>370.6666666666667</ele><time>2026-04-23T14:37:02.283Z</time></trkpt><trkpt lat="45.75405" lon="8.9675883"><ele>370.33333333333337</ele><time>2026-04-23T14:37:04.282Z</time></trkpt><trkpt lat="45.75406" lon="8.9677067"><ele>370.0</ele><time>2026-04-23T14:37:07.281Z</time></trkpt><trkpt lat="45.7540817" lon="8.96782"><ele>369.6666666666667</ele><time>2026-04-23T14:37:10.284Z</time></trkpt><trkpt lat="45.7541067" lon="8.9679183"><ele>369.3333333333333</ele><time>2026-04-23T14:37:12.283Z</time></trkpt><trkpt lat="45.7541433" lon="8.9680517"><ele>369.0</ele><time>2026-04-23T14:37:15.281Z</time></trkpt><trkpt lat="45.75417" lon="8.9681417"><ele>369.0</ele><time>2026-04-23T14:37:17.285Z</time></trkpt><trkpt lat="45.7542" lon="8.9682467"><ele>369.0</ele><time>2026-04-23T14:37:19.283Z</time></trkpt><trkpt lat="45.7542267" lon="8.968345"><ele>369.0</ele><time>2026-04-23T14:37:21.282Z</time></trkpt><trkpt lat="45.7542483" lon="8.9684433"><ele>369.0</ele><time>2026-04-23T14:37:23.282Z</time></trkpt><trkpt lat="45.75427" lon="8.96854"><ele>369.0</ele><time>2026-04-23T14:37:25.282Z</time></trkpt><trkpt lat="45.7542933" lon="8.96864"><ele>369.0</ele><time>2026-04-23T14:37:27.281Z</time></trkpt><trkpt lat="45.754325" lon="8.9687483"><ele>368.6666666666667</ele><time>2026-04-23T14:37:29.283Z</time></trkpt><trkpt lat="45.75435" lon="8.96887"><ele>368.3333333333333</ele><time>2026-04-23T14:37:31.283Z</time></trkpt><trkpt lat="45.7543733" lon="8.9689917"><ele>368.0</ele><time>2026-04-23T14:37:33.282Z</time></trkpt><trkpt lat="45.7544067" lon="8.9691167"><ele>367.66666666666663</ele><time>2026-04-23T14:37:35.281Z</time></trkpt><trkpt lat="45.7544217" lon="8.969235"><ele>367.3333333333333</ele><time>2026-04-23T14:37:37.285Z</time></trkpt><trkpt lat="45.7544283" lon="8.9693467"><ele>367.0</ele><time>2026-04-23T14:37:39.282Z</time></trkpt><trkpt lat="45.754465" lon="8.969465"><ele>366.6</ele><time>2026-04-23T14:38:54.282Z</time></trkpt><trkpt lat="45.75451" lon="8.9696117"><ele>366.20000000000005</ele><time>2026-04-23T14:38:57.282Z</time></trkpt><trkpt lat="45.7545517" lon="8.969755"><ele>365.8</ele><time>2026-04-23T14:38:59.283Z</time></trkpt><trkpt lat="45.7545967" lon="8.96991"><ele>365.4</ele><time>2026-04-23T14:39:01.281Z</time></trkpt><trkpt lat="45.7546217" lon="8.9699967"><ele>365.0</ele><time>2026-04-23T14:39:02.282Z</time></trkpt><trkpt lat="45.7546833" lon="8.9701483"><ele>365.0</ele><time>2026-04-23T14:39:04.281Z</time></trkpt><trkpt lat="45.7547483" lon="8.9702967"><ele>365.0</ele><time>2026-04-23T14:39:06.283Z</time></trkpt><trkpt lat="45.7548233" lon="8.9704417"><ele>365.0</ele><time>2026-04-23T14:39:08.282Z</time></trkpt><trkpt lat="45.7548617" lon="8.970515"><ele>365.0</ele><time>2026-04-23T14:39:09.282Z</time></trkpt><trkpt lat="45.7549017" lon="8.9705867"><ele>365.0</ele><time>2026-04-23T14:39:10.283Z</time></trkpt><trkpt lat="45.75497" lon="8.970725"><ele>365.2</ele><time>2026-04-23T14:39:12.281Z</time></trkpt><trkpt lat="45.7550267" lon="8.9708583"><ele>365.4</ele><time>2026-04-23T14:39:14.283Z</time></trkpt><trkpt lat="45.7550817" lon="8.9709933"><ele>365.6</ele><time>2026-04-23T14:39:16.282Z</time></trkpt><trkpt lat="45.7551367" lon="8.971125"><ele>365.8</ele><time>2026-04-23T14:39:18.283Z</time></trkpt><trkpt lat="45.7552033" lon="8.971225"><ele>366.0</ele><time>2026-04-23T14:39:20.282Z</time></trkpt><trkpt lat="45.755285" lon="8.9712783"><ele>365.6</ele><time>2026-04-23T14:39:22.283Z</time></trkpt><trkpt lat="45.7553983" lon="8.97129"><ele>365.20000000000005</ele><time>2026-04-23T14:39:24.282Z</time></trkpt><trkpt lat="45.75551" lon="8.9712683"><ele>364.79999999999995</ele><time>2026-04-23T14:39:26.283Z</time></trkpt><trkpt lat="45.75561" lon="8.9712517"><ele>364.4</ele><time>2026-04-23T14:39:28.284Z</time></trkpt><trkpt lat="45.75571" lon="8.9712317"><ele>364.0</ele><time>2026-04-23T14:39:30.281Z</time></trkpt><trkpt lat="45.755785" lon="8.97121"><ele>364.0</ele><time>2026-04-23T14:39:32.284Z</time></trkpt><trkpt lat="45.755835" lon="8.971145"><ele>364.0</ele><time>2026-04-23T14:39:34.282Z</time></trkpt><trkpt lat="45.755865" lon="8.971035"><ele>364.0</ele><time>2026-04-23T14:39:36.284Z</time></trkpt><trkpt lat="45.7559033" lon="8.970935"><ele>364.0</ele><time>2026-04-23T14:39:38.283Z</time></trkpt><trkpt lat="45.7559617" lon="8.970855"><ele>364.0</ele><time>2026-04-23T14:39:40.282Z</time></trkpt><trkpt lat="45.75604" lon="8.9707933"><ele>364.0</ele><time>2026-04-23T14:39:42.282Z</time></trkpt><trkpt lat="45.75612" lon="8.9707317"><ele>363.79999999999995</ele><time>2026-04-23T14:39:44.281Z</time></trkpt><trkpt lat="45.7562067" lon="8.9707017"><ele>363.59999999999997</ele><time>2026-04-23T14:39:46.282Z</time></trkpt><trkpt lat="45.7563033" lon="8.97068"><ele>363.4</ele><time>2026-04-23T14:39:48.282Z</time></trkpt><trkpt lat="45.75641" lon="8.9706717"><ele>363.2</ele><time>2026-04-23T14:39:50.282Z</time></trkpt><trkpt lat="45.7565117" lon="8.9706683"><ele>363.0</ele><time>2026-04-23T14:39:52.284Z</time></trkpt><trkpt lat="45.7566133" lon="8.9706617"><ele>363.0</ele><time>2026-04-23T14:39:54.285Z</time></trkpt><trkpt lat="45.7567117" lon="8.9706783"><ele>363.0</ele><time>2026-04-23T14:39:56.282Z</time></trkpt><trkpt lat="45.75681" lon="8.9706967"><ele>363.0</ele><time>2026-04-23T14:39:58.282Z</time></trkpt><trkpt lat="45.756905" lon="8.97072"><ele>363.0</ele><time>2026-04-23T14:40:00.281Z</time></trkpt><trkpt lat="45.757" lon="8.9707483"><ele>363.0</ele><time>2026-04-23T14:40:02.282Z</time></trkpt><trkpt lat="45.75709" lon="8.9707867"><ele>363.8333333333333</ele><time>2026-04-23T14:40:04.281Z</time></trkpt><trkpt lat="45.7571767" lon="8.97082"><ele>364.6666666666667</ele><time>2026-04-23T14:40:06.283Z</time></trkpt><trkpt lat="45.7572617" lon="8.970815"><ele>365.5</ele><time>2026-04-23T14:40:08.283Z</time></trkpt><trkpt lat="45.757325" lon="8.970765"><ele>366.33333333333337</ele><time>2026-04-23T14:40:10.282Z</time></trkpt><trkpt lat="45.75735" lon="8.970675"><ele>367.1666666666667</ele><time>2026-04-23T14:40:12.282Z</time></trkpt><trkpt lat="45.7573983" lon="8.9705867"><ele>368.0</ele><time>2026-04-23T14:40:15.282Z</time></trkpt><trkpt lat="45.75749" lon="8.9705633"><ele>368.0</ele><time>2026-04-23T14:40:18.283Z</time></trkpt><trkpt lat="45.75758" lon="8.9705467"><ele>368.0</ele><time>2026-04-23T14:40:21.283Z</time></trkpt><trkpt lat="45.7576667" lon="8.970545"><ele>368.0</ele><time>2026-04-23T14:40:24.285Z</time></trkpt><trkpt lat="45.75773" lon="8.9705333"><ele>368.0</ele><time>2026-04-23T14:40:27.282Z</time></trkpt><trkpt lat="45.7578017" lon="8.97055"><ele>368.0</ele><time>2026-04-23T14:40:32.283Z</time></trkpt><trkpt lat="45.75787" lon="8.9705617"><ele>368.0</ele><time>2026-04-23T14:40:35.283Z</time></trkpt><trkpt lat="45.75794" lon="8.9705433"><ele>368.83333333333337</ele><time>2026-04-23T14:40:38.283Z</time></trkpt><trkpt lat="45.7580317" lon="8.970555"><ele>369.6666666666667</ele><time>2026-04-23T14:40:41.283Z</time></trkpt><trkpt lat="45.7581083" lon="8.9705467"><ele>370.5</ele><time>2026-04-23T14:40:43.281Z</time></trkpt><trkpt lat="45.7581817" lon="8.9705233"><ele>371.3333333333333</ele><time>2026-04-23T14:40:45.283Z</time></trkpt><trkpt lat="45.7582483" lon="8.9704933"><ele>372.16666666666663</ele><time>2026-04-23T14:40:47.282Z</time></trkpt><trkpt lat="45.7583167" lon="8.9704733"><ele>373.0</ele><time>2026-04-23T14:40:49.282Z</time></trkpt><trkpt lat="45.7584133" lon="8.9704467"><ele>373.0</ele><time>2026-04-23T14:40:52.283Z</time></trkpt><trkpt lat="45.7585067" lon="8.97042"><ele>373.0</ele><time>2026-04-23T14:40:55.282Z</time></trkpt><trkpt lat="45.7585917" lon="8.9704"><ele>373.0</ele><time>2026-04-23T14:40:58.283Z</time></trkpt><trkpt lat="45.758675" lon="8.9703667"><ele>373.0</ele><time>2026-04-23T14:41:01.283Z</time></trkpt><trkpt lat="45.7587583" lon="8.9703433"><ele>373.0</ele><time>2026-04-23T14:41:04.283Z</time></trkpt><trkpt lat="45.7588467" lon="8.9703233"><ele>373.0</ele><time>2026-04-23T14:41:07.282Z</time></trkpt><trkpt lat="45.7589383" lon="8.9702833"><ele>373.0</ele><time>2026-04-23T14:41:10.283Z</time></trkpt><trkpt lat="45.7589983" lon="8.9702417"><ele>373.0</ele><time>2026-04-23T14:41:12.282Z</time></trkpt><trkpt lat="45.759065" lon="8.9701617"><ele>373.0</ele><time>2026-04-23T14:41:15.282Z</time></trkpt><trkpt lat="45.7591083" lon="8.9700833"><ele>373.0</ele><time>2026-04-23T14:41:18.283Z</time></trkpt><trkpt lat="45.7591667" lon="8.970015"><ele>373.0</ele><time>2026-04-23T14:41:21.282Z</time></trkpt><trkpt lat="45.7592317" lon="8.96995"><ele>373.0</ele><time>2026-04-23T14:41:24.282Z</time></trkpt><trkpt lat="45.7592367" lon="8.96985"><ele>373.0</ele><time>2026-04-23T14:41:30.283Z</time></trkpt><trkpt lat="45.75921" lon="8.96976"><ele>373.57142857142856</ele><time>2026-04-23T14:41:41.282Z</time></trkpt><trkpt lat="45.7592367" lon="8.9696767"><ele>374.14285714285717</ele><time>2026-04-23T14:41:45.282Z</time></trkpt><trkpt lat="45.7593133" lon="8.9696367"><ele>374.71428571428567</ele><time>2026-04-23T14:41:49.284Z</time></trkpt><trkpt lat="45.759395" lon="8.969625"><ele>375.2857142857143</ele><time>2026-04-23T14:41:52.283Z</time></trkpt><trkpt lat="45.759465" lon="8.9696067"><ele>375.85714285714283</ele><time>2026-04-23T14:41:55.283Z</time></trkpt><trkpt lat="45.7595383" lon="8.9695833"><ele>376.4285714285714</ele><time>2026-04-23T14:41:58.283Z</time></trkpt><trkpt lat="45.7596067" lon="8.9695767"><ele>377.0</ele><time>2026-04-23T14:42:01.281Z</time></trkpt><trkpt lat="45.7596767" lon="8.9695683"><ele>377.5</ele><time>2026-04-23T14:42:04.283Z</time></trkpt><trkpt lat="45.75974" lon="8.96952"><ele>378.0</ele><time>2026-04-23T14:42:08.283Z</time></trkpt><trkpt lat="45.759815" lon="8.9694717"><ele>378.5</ele><time>2026-04-23T14:42:12.282Z</time></trkpt><trkpt lat="45.759895" lon="8.9694283"><ele>379.0</ele><time>2026-04-23T14:42:15.282Z</time></trkpt><trkpt lat="45.7599533" lon="8.96935"><ele>379.5</ele><time>2026-04-23T14:42:18.281Z</time></trkpt><trkpt lat="45.759965" lon="8.9692383"><ele>380.0</ele><time>2026-04-23T14:42:21.282Z</time></trkpt><trkpt lat="45.7599483" lon="8.9691133"><ele>380.33333333333337</ele><time>2026-04-23T14:42:24.283Z</time></trkpt><trkpt lat="45.7599183" lon="8.9690033"><ele>380.6666666666667</ele><time>2026-04-23T14:42:27.282Z</time></trkpt><trkpt lat="45.7598917" lon="8.9688917"><ele>381.0</ele><time>2026-04-23T14:42:30.282Z</time></trkpt><trkpt lat="45.7598617" lon="8.9687833"><ele>381.3333333333333</ele><time>2026-04-23T14:42:33.283Z</time></trkpt><trkpt lat="45.75983" lon="8.9686633"><ele>381.66666666666663</ele><time>2026-04-23T14:42:36.282Z</time></trkpt><trkpt lat="45.7597983" lon="8.968535"><ele>382.0</ele><time>2026-04-23T14:42:39.281Z</time></trkpt><trkpt lat="45.7597733" lon="8.9684117"><ele>382.5</ele><time>2026-04-23T14:42:42.282Z</time></trkpt><trkpt lat="45.7597483" lon="8.9682983"><ele>383.0</ele><time>2026-04-23T14:42:45.282Z</time></trkpt><trkpt lat="45.759715" lon="8.9681917"><ele>383.5</ele><time>2026-04-23T14:42:48.282Z</time></trkpt><trkpt lat="45.759675" lon="8.9680933"><ele>384.0</ele><time>2026-04-23T14:42:52.282Z</time></trkpt><trkpt lat="45.7596083" lon="8.96809"><ele>384.50000000000006</ele><time>2026-04-23T14:42:55.282Z</time></trkpt><trkpt lat="45.7595283" lon="8.9681183"><ele>385.0</ele><time>2026-04-23T14:42:58.283Z</time></trkpt><trkpt lat="45.759495" lon="8.968205"><ele>385.00000000000006</ele><time>2026-04-23T14:43:01.282Z</time></trkpt><trkpt lat="45.759525" lon="8.9683233"><ele>385.0</ele><time>2026-04-23T14:43:04.282Z</time></trkpt><trkpt lat="45.7595117" lon="8.9684367"><ele>385.0</ele><time>2026-04-23T14:43:07.283Z</time></trkpt><trkpt lat="45.75945" lon="8.9684633"><ele>385.0</ele><time>2026-04-23T14:43:10.281Z</time></trkpt><trkpt lat="45.7593933" lon="8.9685117"><ele>385.00000000000006</ele><time>2026-04-23T14:43:16.283Z</time></trkpt><trkpt lat="45.7594883" lon="8.9684733"><ele>385.0</ele><time>2026-04-23T14:44:04.282Z</time></trkpt><trkpt lat="45.7593967" lon="8.9684267"><ele>382.0</ele><time>2026-04-23T14:44:36.284Z</time></trkpt></trkseg></trk></gpx>